Time,TemperatureF,DewpointF,PressureIn,WindDirection,WindDirectionDegrees,WindSpeedMPH,WindSpeedGustMPH,Humidity,HourlyPrecipIn,Conditions,Clouds,dailyrainin,SoftwareType,DateUTC
2013-04-27 00:00:00,52.3,49.8,30.51,ESE,107,5.0,7.0,91,0.00,,---,0.00,VWS V14.01,2013-04-27 05:00:00,
2013-04-27 00:01:00,52.3,49.8,30.51,East,99,7.0,7.0,91,0.00,,---,0.00,VWS V14.01,2013-04-27 05:01:00,
2013-04-27 00:06:00,52.3,49.8,30.51,East,82,6.0,7.0,91,0.00,,---,0.00,VWS V14.01,2013-04-27 05:06:00,
2013-04-27 00:10:00,52.3,50.0,30.51,East,94,3.0,7.0,92,0.00,,---,0.00,VWS V14.01,2013-04-27 05:10:00,
2013-04-27 00:11:00,52.3,50.0,30.51,East,94,4.0,4.0,92,0.00,,---,0.00,VWS V14.01,2013-04-27 05:11:00,
2013-04-27 00:16:00,52.5,50.2,30.51,East,85,3.0,5.0,92,0.00,,---,0.00,VWS V14.01,2013-04-27 05:16:00,
2013-04-27 00:20:00,52.5,50.2,30.51,East,92,3.0,5.0,92,0.00,,---,0.00,VWS V14.01,2013-04-27 05:20:00,
2013-04-27 00:22:00,52.5,50.2,30.51,East,92,3.0,4.0,92,0.00,,---,0.00,VWS V14.01,2013-04-27 05:22:00,
2013-04-27 00:27:00,52.5,50.2,30.51,East,98,4.0,6.0,92,0.00,,---,0.00,VWS V14.01,2013-04-27 05:27:00,
2013-04-27 00:30:00,52.5,50.2,30.50,East,98,2.0,6.0,92,0.00,,---,0.00,VWS V14.01,2013-04-27 05:30:00,
2013-04-27 00:32:00,52.5,50.2,30.50,East,98,3.0,4.0,92,0.00,,---,0.00,VWS V14.01,2013-04-27 05:32:00,
2013-04-27 00:37:00,52.6,50.3,30.50,ESE,121,4.0,6.0,92,0.00,,---,0.00,VWS V14.01,2013-04-27 05:37:00,
2013-04-27 00:40:00,52.6,50.3,30.50,ESE,114,4.0,6.0,92,0.00,,---,0.00,VWS V14.01,2013-04-27 05:40:00,
2013-04-27 00:42:00,52.8,50.5,30.50,ESE,114,3.0,4.0,92,0.00,,---,0.00,VWS V14.01,2013-04-27 05:42:00,
2013-04-27 00:47:00,52.8,50.5,30.49,East,86,5.0,7.0,92,0.00,,---,0.00,VWS V14.01,2013-04-27 05:47:00,
2013-04-27 00:50:00,52.8,50.5,30.49,East,98,3.0,7.0,92,0.00,,---,0.00,VWS V14.01,2013-04-27 05:50:00,
2013-04-27 00:52:00,52.8,50.5,30.49,East,99,7.0,8.0,92,0.00,,---,0.00,VWS V14.01,2013-04-27 05:52:00,
2013-04-27 00:57:00,52.8,50.5,30.49,East,99,5.0,9.0,92,0.00,,---,0.00,VWS V14.01,2013-04-27 05:57:00,
2013-04-27 01:00:00,52.9,50.6,30.48,ESE,111,4.0,9.0,92,0.00,,---,0.00,VWS V14.01,2013-04-27 06:00:00,
2013-04-27 01:07:00,52.9,50.6,30.48,East,87,2.0,6.0,92,0.00,,---,0.00,VWS V14.01,2013-04-27 06:07:00,
2013-04-27 01:10:00,52.9,50.6,30.48,ENE,73,3.0,6.0,92,0.00,,---,0.00,VWS V14.01,2013-04-27 06:10:00,
2013-04-27 01:12:00,52.9,50.6,30.48,East,83,4.0,6.0,92,0.00,,---,0.00,VWS V14.01,2013-04-27 06:12:00,
2013-04-27 01:20:00,53.1,50.8,30.46,East,90,6.0,10.0,92,0.00,,---,0.00,VWS V14.01,2013-04-27 06:20:00,
2013-04-27 01:30:00,53.1,50.8,30.46,East,90,6.0,10.0,92,0.01,,---,0.01,VWS V14.01,2013-04-27 06:30:00,
2013-04-27 01:40:00,53.1,50.8,30.46,ENE,68,6.0,12.0,92,0.03,,---,0.03,VWS V14.01,2013-04-27 06:40:00,
2013-04-27 01:50:00,53.1,50.8,30.50,NNW,338,9.0,16.0,92,0.06,,---,0.06,VWS V14.01,2013-04-27 06:50:00,
2013-04-27 02:00:00,52.9,50.6,30.52,NNW,338,9.0,17.0,92,0.17,,---,0.17,VWS V14.01,2013-04-27 07:00:00,
2013-04-27 02:10:00,52.9,50.6,30.52,NW,315,3.0,7.0,92,0.35,,---,0.35,VWS V14.01,2013-04-27 07:10:00,
2013-04-27 02:20:00,53.1,51.1,30.49,ESE,112,5.0,8.0,93,0.42,,---,0.42,VWS V14.01,2013-04-27 07:20:00,
2013-04-27 02:30:00,53.1,50.8,30.47,East,90,1.0,4.0,92,0.44,,---,0.44,VWS V14.01,2013-04-27 07:30:00,
2013-04-27 02:40:00,53.2,51.2,30.47,East,90,3.0,5.0,93,0.45,,---,0.46,VWS V14.01,2013-04-27 07:40:00,
2013-04-27 02:50:00,53.5,51.5,30.44,ESE,112,6.0,10.0,93,0.46,,---,0.49,VWS V14.01,2013-04-27 07:50:00,
2013-04-27 03:00:00,53.9,51.9,30.40,ESE,112,5.0,9.0,93,0.46,,---,0.52,VWS V14.01,2013-04-27 08:00:00,
2013-04-27 03:10:00,53.9,51.9,30.40,ESE,112,9.0,18.0,93,0.37,,---,0.54,VWS V14.01,2013-04-27 08:10:00,
2013-04-27 03:20:00,53.8,51.8,30.34,SE,135,10.0,17.0,93,0.20,,---,0.55,VWS V14.01,2013-04-27 08:20:00,
2013-04-27 03:30:00,54.1,52.1,30.35,SSE,158,9.0,16.0,93,0.13,,---,0.55,VWS V14.01,2013-04-27 08:30:00,
2013-04-27 03:40:00,53.8,51.8,30.35,SE,135,7.0,14.0,93,0.11,,---,0.55,VWS V14.01,2013-04-27 08:40:00,
2013-04-27 03:50:00,53.5,51.5,30.36,ESE,112,6.0,13.0,93,0.09,,---,0.55,VWS V14.01,2013-04-27 08:50:00,
2013-04-27 04:00:00,53.2,51.2,30.37,SE,135,5.0,10.0,93,0.06,,---,0.55,VWS V14.01,2013-04-27 09:00:00,
2013-04-27 04:10:00,53.2,51.2,30.37,SE,135,4.0,12.0,93,0.03,,---,0.55,VWS V14.01,2013-04-27 09:10:00,
2013-04-27 04:20:00,53.1,51.1,30.37,SE,135,0.0,3.0,93,0.01,,---,0.55,VWS V14.01,2013-04-27 09:20:00,
2013-04-27 04:30:00,53.1,51.1,30.39,SE,135,2.0,4.0,93,0.00,,---,0.55,VWS V14.01,2013-04-27 09:30:00,
2013-04-27 04:40:00,53.1,51.1,30.39,ESE,112,3.0,6.0,93,0.00,,---,0.55,VWS V14.01,2013-04-27 09:40:00,
2013-04-27 04:50:00,52.9,50.9,30.39,ESE,112,1.0,4.0,93,0.00,,---,0.55,VWS V14.01,2013-04-27 09:50:00,
2013-04-27 05:00:00,52.8,50.8,30.39,NW,315,3.0,6.0,93,0.00,,---,0.55,VWS V14.01,2013-04-27 10:00:00,
2013-04-27 05:10:00,52.8,50.8,30.39,NW,315,5.0,9.0,93,0.00,,---,0.55,VWS V14.01,2013-04-27 10:10:00,
2013-04-27 05:20:00,52.9,50.9,30.40,NW,315,4.0,8.0,93,0.00,,---,0.55,VWS V14.01,2013-04-27 10:20:00,
2013-04-27 05:30:00,52.9,50.9,30.40,NW,315,1.0,4.0,93,0.00,,---,0.55,VWS V14.01,2013-04-27 10:30:00,
2013-04-27 05:40:00,52.9,50.9,30.40,NW,315,0.0,1.0,93,0.00,,---,0.55,VWS V14.01,2013-04-27 10:40:00,
2013-04-27 05:50:00,52.8,50.8,30.40,NW,315,0.0,2.0,93,0.00,,---,0.55,VWS V14.01,2013-04-27 10:50:00,
2013-04-27 06:00:00,52.6,50.6,30.41,NW,315,0.0,2.0,93,0.00,,---,0.55,VWS V14.01,2013-04-27 11:00:00,
2013-04-27 06:10:00,52.5,50.5,30.41,NW,315,0.0,1.0,93,0.00,,---,0.55,VWS V14.01,2013-04-27 11:10:00,
2013-04-27 06:20:00,52.5,50.5,30.42,NW,315,0.0,0.0,93,0.00,,---,0.55,VWS V14.01,2013-04-27 11:20:00,
2013-04-27 06:30:00,52.6,50.6,30.41,NW,315,0.0,1.0,93,0.00,,---,0.55,VWS V14.01,2013-04-27 11:30:00,
2013-04-27 06:40:00,52.8,51.1,30.41,NW,315,0.0,2.0,94,0.00,,---,0.55,VWS V14.01,2013-04-27 11:40:00,
2013-04-27 06:50:00,52.8,50.8,30.42,NW,315,0.0,0.0,93,0.00,,---,0.55,VWS V14.01,2013-04-27 11:50:00,
2013-04-27 07:00:00,52.6,50.6,30.41,NW,315,0.0,2.0,93,0.00,,---,0.55,VWS V14.01,2013-04-27 12:00:00,
2013-04-27 07:03:00,53.1,51.4,30.41,NW,313,0.0,0.0,94,0.00,,---,0.55,VWS V14.01,2013-04-27 12:03:00,
2013-04-27 07:04:00,53.1,51.4,30.41,NW,313,0.0,0.0,94,0.00,,---,0.55,VWS V14.01,2013-04-27 12:04:00,
2013-04-27 07:05:00,53.1,51.4,30.41,NW,313,0.0,0.0,94,0.00,,---,0.55,VWS V14.01,2013-04-27 12:05:00,
2013-04-27 07:06:00,53.1,51.4,30.41,NW,313,0.0,0.0,94,0.00,,---,0.55,VWS V14.01,2013-04-27 12:06:00,
2013-04-27 07:07:00,53.1,51.4,30.41,NW,313,0.0,0.0,94,0.00,,---,0.55,VWS V14.01,2013-04-27 12:07:00,
2013-04-27 07:08:00,53.1,51.4,30.41,NW,313,0.0,1.0,94,0.00,,---,0.55,VWS V14.01,2013-04-27 12:08:00,
2013-04-27 07:09:00,53.1,51.4,30.41,NW,313,2.0,2.0,94,0.00,,---,0.55,VWS V14.01,2013-04-27 12:09:00,
2013-04-27 07:10:00,53.2,51.5,30.41,NW,313,1.0,2.0,94,0.00,,---,0.55,VWS V14.01,2013-04-27 12:10:00,
2013-04-27 07:11:00,53.2,51.5,30.41,NW,313,2.0,2.0,94,0.00,,---,0.55,VWS V14.01,2013-04-27 12:11:00,
2013-04-27 07:12:00,53.2,51.5,30.41,ENE,65,3.0,4.0,94,0.00,,---,0.55,VWS V14.01,2013-04-27 12:12:00,
2013-04-27 07:13:00,53.3,51.6,30.41,ENE,77,3.0,5.0,94,0.00,,---,0.55,VWS V14.01,2013-04-27 12:13:00,
2013-04-27 07:14:00,53.3,51.6,30.41,East,86,4.0,5.0,94,0.00,,---,0.55,VWS V14.01,2013-04-27 12:14:00,
2013-04-27 07:15:00,53.5,51.8,30.40,East,86,4.0,5.0,94,0.00,,---,0.55,VWS V14.01,2013-04-27 12:15:00,
2013-04-27 07:16:00,53.5,51.8,30.40,East,86,0.0,5.0,94,0.00,,---,0.55,VWS V14.01,2013-04-27 12:16:00,
2013-04-27 07:17:00,53.5,51.8,30.40,East,86,0.0,5.0,94,0.00,,---,0.55,VWS V14.01,2013-04-27 12:17:00,
2013-04-27 07:18:00,52.8,50.8,30.42,NW,315,0.0,0.0,93,0.00,,---,0.55,VWS V14.01,2013-04-27 12:18:00,
2013-04-27 07:19:00,53.5,51.8,30.40,East,86,0.0,5.0,94,0.00,,---,0.55,VWS V14.01,2013-04-27 12:19:00,
2013-04-27 07:20:00,53.5,51.8,30.40,East,86,0.0,5.0,94,0.00,,---,0.55,VWS V14.01,2013-04-27 12:20:00,
2013-04-27 07:21:00,53.5,51.8,30.40,East,86,0.0,0.0,94,0.00,,---,0.55,VWS V14.01,2013-04-27 12:21:00,
2013-04-27 07:22:00,53.5,51.8,30.40,East,86,0.0,0.0,94,0.00,,---,0.55,VWS V14.01,2013-04-27 12:22:00,
2013-04-27 07:23:00,53.5,51.8,30.40,East,86,0.0,0.0,94,0.00,,---,0.55,VWS V14.01,2013-04-27 12:23:00,
2013-04-27 07:24:00,53.5,51.8,30.40,East,86,0.0,0.0,94,0.00,,---,0.55,VWS V14.01,2013-04-27 12:24:00,
2013-04-27 07:25:00,53.5,51.8,30.40,East,86,0.0,0.0,94,0.00,,---,0.55,VWS V14.01,2013-04-27 12:25:00,
2013-04-27 07:26:00,53.5,51.8,30.40,East,86,0.0,0.0,94,0.00,,---,0.55,VWS V14.01,2013-04-27 12:26:00,
2013-04-27 07:27:00,53.5,51.8,30.40,East,86,0.0,0.0,94,0.00,,---,0.55,VWS V14.01,2013-04-27 12:27:00,
2013-04-27 07:28:00,53.6,51.9,30.40,East,86,0.0,1.0,94,0.00,,---,0.55,VWS V14.01,2013-04-27 12:28:00,
2013-04-27 07:29:00,53.6,51.9,30.40,East,86,2.0,3.0,94,0.00,,---,0.55,VWS V14.01,2013-04-27 12:29:00,
2013-04-27 07:30:00,53.6,51.9,30.40,East,86,2.0,3.0,94,0.00,,---,0.55,VWS V14.01,2013-04-27 12:30:00,
2013-04-27 07:31:00,53.6,51.9,30.40,East,86,2.0,3.0,94,0.00,,---,0.55,VWS V14.01,2013-04-27 12:31:00,
2013-04-27 07:32:00,53.6,51.9,30.40,East,86,2.0,3.0,94,0.00,,---,0.55,VWS V14.01,2013-04-27 12:32:00,
2013-04-27 07:33:00,53.6,51.9,30.40,East,86,3.0,3.0,94,0.00,,---,0.55,VWS V14.01,2013-04-27 12:33:00,
2013-04-27 07:34:00,53.6,51.9,30.40,East,86,3.0,3.0,94,0.00,,---,0.55,VWS V14.01,2013-04-27 12:34:00,
2013-04-27 07:35:00,53.8,52.1,30.40,East,86,1.0,3.0,94,0.00,,---,0.55,VWS V14.01,2013-04-27 12:35:00,
2013-04-27 07:36:00,53.8,52.1,30.40,East,86,0.0,3.0,94,0.00,,---,0.55,VWS V14.01,2013-04-27 12:36:00,
2013-04-27 07:37:00,53.8,52.1,30.40,East,86,0.0,3.0,94,0.00,,---,0.55,VWS V14.01,2013-04-27 12:37:00,
2013-04-27 07:38:00,53.8,52.1,30.40,East,86,1.0,3.0,94,0.00,,---,0.55,VWS V14.01,2013-04-27 12:38:00,
2013-04-27 07:39:00,53.8,52.1,30.40,East,86,0.0,3.0,94,0.00,,---,0.55,VWS V14.01,2013-04-27 12:39:00,
2013-04-27 07:40:00,53.8,52.1,30.40,East,86,0.0,3.0,94,0.00,,---,0.55,VWS V14.01,2013-04-27 12:40:00,
2013-04-27 07:41:00,53.9,52.2,30.40,East,86,0.0,0.0,94,0.00,,---,0.55,VWS V14.01,2013-04-27 12:41:00,
2013-04-27 07:42:00,53.9,52.2,30.40,East,86,0.0,0.0,94,0.00,,---,0.55,VWS V14.01,2013-04-27 12:42:00,
2013-04-27 07:43:00,53.9,52.2,30.40,East,86,0.0,0.0,94,0.00,,---,0.55,VWS V14.01,2013-04-27 12:43:00,
2013-04-27 07:44:00,53.9,52.2,30.40,East,86,2.0,3.0,94,0.00,,---,0.55,VWS V14.01,2013-04-27 12:44:00,
2013-04-27 07:45:00,53.9,52.2,30.41,East,86,2.0,4.0,94,0.00,,---,0.55,VWS V14.01,2013-04-27 12:45:00,
2013-04-27 07:46:00,53.9,52.2,30.41,East,86,2.0,4.0,94,0.00,,---,0.55,VWS V14.01,2013-04-27 12:46:00,
2013-04-27 07:47:00,54.1,52.4,30.41,East,86,4.0,4.0,94,0.00,,---,0.55,VWS V14.01,2013-04-27 12:47:00,
2013-04-27 07:48:00,54.1,52.4,30.41,East,84,4.0,5.0,94,0.00,,---,0.55,VWS V14.01,2013-04-27 12:48:00,
2013-04-27 07:49:00,54.1,52.4,30.41,East,83,4.0,5.0,94,0.00,,---,0.55,VWS V14.01,2013-04-27 12:49:00,
2013-04-27 07:50:00,54.1,52.4,30.41,WNW,287,4.0,5.0,94,0.00,,---,0.55,VWS V14.01,2013-04-27 12:50:00,
2013-04-27 07:51:00,54.1,52.4,30.41,WNW,287,4.0,5.0,94,0.00,,---,0.55,VWS V14.01,2013-04-27 12:51:00,
2013-04-27 07:52:00,54.1,52.4,30.41,WNW,287,4.0,5.0,94,0.00,,---,0.55,VWS V14.01,2013-04-27 12:52:00,
2013-04-27 07:53:00,54.2,52.5,30.41,WNW,299,1.0,5.0,94,0.00,,---,0.55,VWS V14.01,2013-04-27 12:53:00,
2013-04-27 07:54:00,54.2,52.5,30.41,WNW,299,1.0,5.0,94,0.00,,---,0.55,VWS V14.01,2013-04-27 12:54:00,
2013-04-27 07:55:00,54.2,52.5,30.41,WNW,299,0.0,5.0,94,0.00,,---,0.55,VWS V14.01,2013-04-27 12:55:00,
2013-04-27 07:56:00,54.2,52.5,30.41,WNW,299,0.0,5.0,94,0.00,,---,0.55,VWS V14.01,2013-04-27 12:56:00,
2013-04-27 07:57:00,54.1,52.4,30.41,WNW,299,0.0,5.0,94,0.00,,---,0.55,VWS V14.01,2013-04-27 12:57:00,
2013-04-27 07:58:00,54.1,52.4,30.41,WNW,299,0.0,5.0,94,0.00,,---,0.55,VWS V14.01,2013-04-27 12:58:00,
2013-04-27 07:59:00,54.1,52.4,30.41,WNW,299,0.0,5.0,94,0.00,,---,0.55,VWS V14.01,2013-04-27 12:59:00,
2013-04-27 08:00:00,54.2,52.5,30.41,WNW,299,0.0,5.0,94,0.00,,---,0.55,VWS V14.01,2013-04-27 13:00:00,
2013-04-27 08:01:00,54.1,52.4,30.41,WNW,299,0.0,0.0,94,0.00,,---,0.55,VWS V14.01,2013-04-27 13:01:00,
2013-04-27 08:02:00,54.1,52.4,30.41,WNW,299,0.0,0.0,94,0.00,,---,0.55,VWS V14.01,2013-04-27 13:02:00,
2013-04-27 08:03:00,54.2,52.5,30.41,WNW,299,0.0,0.0,94,0.00,,---,0.55,VWS V14.01,2013-04-27 13:03:00,
2013-04-27 08:04:00,54.2,52.5,30.41,WNW,299,0.0,1.0,94,0.00,,---,0.55,VWS V14.01,2013-04-27 13:04:00,
2013-04-27 08:05:00,54.2,52.5,30.41,WNW,299,1.0,1.0,94,0.00,,---,0.55,VWS V14.01,2013-04-27 13:05:00,
2013-04-27 08:06:00,54.2,52.5,30.41,NNW,344,3.0,3.0,94,0.00,,---,0.55,VWS V14.01,2013-04-27 13:06:00,
2013-04-27 08:07:00,54.2,52.5,30.41,North,355,4.0,4.0,94,0.00,,---,0.55,VWS V14.01,2013-04-27 13:07:00,
2013-04-27 08:08:00,54.2,52.5,30.41,North,5,2.0,4.0,94,0.00,,---,0.55,VWS V14.01,2013-04-27 13:08:00,
2013-04-27 08:09:00,54.2,52.5,30.41,NNE,32,4.0,6.0,94,0.00,,---,0.55,VWS V14.01,2013-04-27 13:09:00,
2013-04-27 08:10:00,54.4,52.7,30.41,NE,36,4.0,6.0,94,0.00,,---,0.55,VWS V14.01,2013-04-27 13:10:00,
2013-04-27 08:11:00,54.4,52.7,30.41,NE,38,5.0,6.0,94,0.00,,---,0.55,VWS V14.01,2013-04-27 13:11:00,
2013-04-27 08:12:00,54.4,52.7,30.41,NE,38,2.0,6.0,94,0.00,,---,0.55,VWS V14.01,2013-04-27 13:12:00,
2013-04-27 08:13:00,54.4,52.7,30.41,NE,38,2.0,6.0,94,0.00,,---,0.55,VWS V14.01,2013-04-27 13:13:00,
2013-04-27 08:14:00,54.5,52.8,30.41,NE,38,2.0,6.0,94,0.00,,---,0.55,VWS V14.01,2013-04-27 13:14:00,
2013-04-27 08:15:00,54.5,52.8,30.40,NE,38,2.0,6.0,94,0.00,,---,0.55,VWS V14.01,2013-04-27 13:15:00,
2013-04-27 08:16:00,54.5,52.8,30.40,NE,38,1.0,6.0,94,0.00,,---,0.55,VWS V14.01,2013-04-27 13:16:00,
2013-04-27 08:17:00,54.5,52.8,30.40,NE,38,1.0,6.0,94,0.00,,---,0.55,VWS V14.01,2013-04-27 13:17:00,
2013-04-27 08:18:00,54.7,53.0,30.40,NE,38,2.0,6.0,94,0.00,,---,0.55,VWS V14.01,2013-04-27 13:18:00,
2013-04-27 08:19:00,54.7,53.0,30.40,NE,38,0.0,6.0,94,0.00,,---,0.55,VWS V14.01,2013-04-27 13:19:00,
2013-04-27 08:20:00,54.7,53.0,30.40,NE,38,0.0,6.0,94,0.00,,---,0.55,VWS V14.01,2013-04-27 13:20:00,
2013-04-27 08:21:00,54.8,53.1,30.40,NE,38,0.0,2.0,94,0.00,,---,0.55,VWS V14.01,2013-04-27 13:21:00,
2013-04-27 08:22:00,54.8,53.1,30.40,NE,39,0.0,2.0,94,0.00,,---,0.55,VWS V14.01,2013-04-27 13:22:00,
2013-04-27 08:23:00,54.8,53.1,30.40,NE,38,0.0,2.0,94,0.00,,---,0.55,VWS V14.01,2013-04-27 13:23:00,
2013-04-27 08:24:00,54.8,53.1,30.40,NE,39,0.0,2.0,94,0.00,,---,0.55,VWS V14.01,2013-04-27 13:24:00,
2013-04-27 08:25:00,54.8,53.1,30.40,NE,38,0.0,2.0,94,0.00,,---,0.55,VWS V14.01,2013-04-27 13:25:00,
2013-04-27 08:26:00,54.8,53.1,30.40,NE,38,0.0,2.0,94,0.00,,---,0.55,VWS V14.01,2013-04-27 13:26:00,
2013-04-27 08:27:00,54.8,53.1,30.40,NE,38,0.0,2.0,94,0.00,,---,0.55,VWS V14.01,2013-04-27 13:27:00,
2013-04-27 08:28:00,54.8,53.1,30.40,NE,38,0.0,2.0,94,0.00,,---,0.55,VWS V14.01,2013-04-27 13:28:00,
2013-04-27 08:29:00,54.8,53.1,30.40,NE,38,1.0,2.0,94,0.00,,---,0.55,VWS V14.01,2013-04-27 13:29:00,
2013-04-27 08:30:00,55.0,53.3,30.40,NE,38,1.0,2.0,94,0.00,,---,0.55,VWS V14.01,2013-04-27 13:30:00,
2013-04-27 08:33:00,55.0,53.3,30.40,NE,39,0.0,2.0,94,0.00,,---,0.55,VWS V14.01,2013-04-27 13:33:00,
2013-04-27 08:34:00,55.1,53.4,30.40,NE,38,0.0,2.0,94,0.00,,---,0.55,VWS V14.01,2013-04-27 13:34:00,
2013-04-27 08:35:00,55.1,53.4,30.40,NE,38,0.0,2.0,94,0.00,,---,0.55,VWS V14.01,2013-04-27 13:35:00,
2013-04-27 08:36:00,55.1,53.4,30.40,NE,39,0.0,2.0,94,0.00,,---,0.55,VWS V14.01,2013-04-27 13:36:00,
2013-04-27 08:37:00,55.1,53.4,30.40,NE,38,0.0,2.0,94,0.00,,---,0.55,VWS V14.01,2013-04-27 13:37:00,
2013-04-27 08:38:00,55.1,53.4,30.40,NE,38,0.0,2.0,94,0.00,,---,0.55,VWS V14.01,2013-04-27 13:38:00,
2013-04-27 08:39:00,55.1,53.4,30.40,NE,38,0.0,2.0,94,0.00,,---,0.55,VWS V14.01,2013-04-27 13:39:00,
2013-04-27 08:40:00,55.1,53.4,30.40,NE,38,0.0,2.0,94,0.00,,---,0.55,VWS V14.01,2013-04-27 13:40:00,
2013-04-27 08:41:00,55.1,53.4,30.40,NE,38,2.0,2.0,94,0.00,,---,0.55,VWS V14.01,2013-04-27 13:41:00,
2013-04-27 08:42:00,55.1,53.4,30.40,NE,38,2.0,3.0,94,0.00,,---,0.55,VWS V14.01,2013-04-27 13:42:00,
2013-04-27 08:43:00,55.1,53.4,30.40,NE,38,2.0,3.0,94,0.00,,---,0.55,VWS V14.01,2013-04-27 13:43:00,
2013-04-27 08:44:00,55.1,53.4,30.40,NE,38,1.0,3.0,94,0.00,,---,0.55,VWS V14.01,2013-04-27 13:44:00,
2013-04-27 08:45:00,55.1,53.4,30.40,NE,39,3.0,4.0,94,0.00,,---,0.55,VWS V14.01,2013-04-27 13:45:00,
2013-04-27 08:46:00,55.3,53.6,30.40,NE,38,2.0,4.0,94,0.00,,---,0.55,VWS V14.01,2013-04-27 13:46:00,
2013-04-27 08:47:00,55.3,53.6,30.40,NE,38,0.0,4.0,94,0.00,,---,0.55,VWS V14.01,2013-04-27 13:47:00,
2013-04-27 08:48:00,55.1,53.4,30.40,NE,38,0.0,4.0,94,0.00,,---,0.55,VWS V14.01,2013-04-27 13:48:00,
2013-04-27 08:49:00,55.3,53.6,30.40,NE,38,0.0,4.0,94,0.00,,---,0.55,VWS V14.01,2013-04-27 13:49:00,
2013-04-27 08:50:00,55.3,53.6,30.40,NE,38,0.0,4.0,94,0.00,,---,0.55,VWS V14.01,2013-04-27 13:50:00,
2013-04-27 08:51:00,55.3,53.6,30.40,NE,39,0.0,0.0,94,0.00,,---,0.55,VWS V14.01,2013-04-27 13:51:00,
2013-04-27 08:52:00,55.3,53.6,30.40,NE,38,0.0,0.0,94,0.00,,---,0.55,VWS V14.01,2013-04-27 13:52:00,
2013-04-27 08:53:00,55.3,53.6,30.40,NE,38,0.0,0.0,94,0.00,,---,0.55,VWS V14.01,2013-04-27 13:53:00,
2013-04-27 08:54:00,55.3,53.6,30.40,NE,38,0.0,0.0,94,0.00,,---,0.55,VWS V14.01,2013-04-27 13:54:00,
2013-04-27 08:55:00,55.3,53.6,30.40,NE,39,0.0,0.0,94,0.00,,---,0.55,VWS V14.01,2013-04-27 13:55:00,
2013-04-27 08:56:00,55.3,53.6,30.40,NE,39,0.0,0.0,94,0.00,,---,0.55,VWS V14.01,2013-04-27 13:56:00,
2013-04-27 08:57:00,55.3,53.6,30.40,NE,39,0.0,0.0,94,0.00,,---,0.55,VWS V14.01,2013-04-27 13:57:00,
2013-04-27 08:58:00,55.3,53.6,30.40,NE,39,0.0,0.0,94,0.00,,---,0.55,VWS V14.01,2013-04-27 13:58:00,
2013-04-27 08:59:00,55.3,53.6,30.40,NE,39,0.0,0.0,94,0.00,,---,0.55,VWS V14.01,2013-04-27 13:59:00,
2013-04-27 09:00:00,55.3,53.6,30.40,NE,38,0.0,0.0,94,0.00,,---,0.55,VWS V14.01,2013-04-27 14:00:00,
2013-04-27 09:01:00,55.3,53.6,30.40,NE,39,0.0,0.0,94,0.00,,---,0.55,VWS V14.01,2013-04-27 14:01:00,
2013-04-27 09:02:00,55.3,53.6,30.40,NE,39,0.0,0.0,94,0.00,,---,0.55,VWS V14.01,2013-04-27 14:02:00,
2013-04-27 09:03:00,55.3,53.6,30.40,NE,38,0.0,2.0,94,0.00,,---,0.55,VWS V14.01,2013-04-27 14:03:00,
2013-04-27 09:04:00,55.3,53.6,30.40,NE,38,0.0,2.0,94,0.00,,---,0.55,VWS V14.01,2013-04-27 14:04:00,
2013-04-27 09:05:00,55.3,53.6,30.40,NE,38,0.0,2.0,94,0.00,,---,0.55,VWS V14.01,2013-04-27 14:05:00,
2013-04-27 09:06:00,55.4,53.7,30.40,NE,38,0.0,2.0,94,0.00,,---,0.55,VWS V14.01,2013-04-27 14:06:00,
2013-04-27 09:07:00,55.4,53.7,30.40,NE,39,0.0,2.0,94,0.00,,---,0.55,VWS V14.01,2013-04-27 14:07:00,
2013-04-27 09:08:00,55.4,53.7,30.40,NE,38,0.0,2.0,94,0.00,,---,0.55,VWS V14.01,2013-04-27 14:08:00,
2013-04-27 09:09:00,55.4,53.7,30.40,NE,38,0.0,2.0,94,0.00,,---,0.55,VWS V14.01,2013-04-27 14:09:00,
2013-04-27 09:10:00,55.4,53.7,30.40,NE,38,0.0,0.0,94,0.00,,---,0.55,VWS V14.01,2013-04-27 14:10:00,
2013-04-27 09:11:00,55.4,53.7,30.40,NE,39,0.0,1.0,94,0.00,,---,0.55,VWS V14.01,2013-04-27 14:11:00,
2013-04-27 09:12:00,55.4,53.7,30.40,NE,38,0.0,1.0,94,0.00,,---,0.55,VWS V14.01,2013-04-27 14:12:00,
2013-04-27 09:13:00,55.6,53.9,30.40,NE,38,0.0,1.0,94,0.00,,---,0.55,VWS V14.01,2013-04-27 14:13:00,
2013-04-27 09:14:00,55.6,53.9,30.40,NE,39,0.0,1.0,94,0.00,,---,0.55,VWS V14.01,2013-04-27 14:14:00,
2013-04-27 09:15:00,55.6,53.9,30.40,NE,38,0.0,1.0,94,0.00,,---,0.55,VWS V14.01,2013-04-27 14:15:00,
2013-04-27 09:16:00,55.6,53.9,30.40,NE,39,0.0,1.0,94,0.00,,---,0.55,VWS V14.01,2013-04-27 14:16:00,
2013-04-27 09:17:00,55.6,54.2,30.40,NE,39,0.0,1.0,95,0.00,,---,0.55,VWS V14.01,2013-04-27 14:17:00,
2013-04-27 09:18:00,55.7,54.3,30.40,NE,38,3.0,3.0,95,0.00,,---,0.55,VWS V14.01,2013-04-27 14:18:00,
2013-04-27 09:19:00,55.7,54.3,30.40,NE,39,2.0,3.0,95,0.00,,---,0.55,VWS V14.01,2013-04-27 14:19:00,
2013-04-27 09:20:00,55.7,54.3,30.40,NE,38,0.0,0.0,95,0.00,,---,0.55,VWS V14.01,2013-04-27 14:20:00,
2013-04-27 09:21:00,55.7,54.3,30.40,NE,38,0.0,0.0,95,0.00,,---,0.55,VWS V14.01,2013-04-27 14:21:00,
2013-04-27 09:22:00,55.7,54.3,30.40,NE,39,3.0,3.0,95,0.00,,---,0.55,VWS V14.01,2013-04-27 14:22:00,
2013-04-27 09:23:00,55.7,54.3,30.40,NE,39,2.0,3.0,95,0.00,,---,0.55,VWS V14.01,2013-04-27 14:23:00,
2013-04-27 09:24:00,55.9,54.5,30.40,NE,38,3.0,4.0,95,0.00,,---,0.55,VWS V14.01,2013-04-27 14:24:00,
2013-04-27 09:25:00,55.9,54.5,30.40,NE,38,2.0,4.0,95,0.00,,---,0.55,VWS V14.01,2013-04-27 14:25:00,
2013-04-27 09:26:00,55.9,54.5,30.40,NE,38,3.0,4.0,95,0.00,,---,0.55,VWS V14.01,2013-04-27 14:26:00,
2013-04-27 09:27:00,55.9,54.5,30.40,NE,38,1.0,4.0,95,0.00,,---,0.55,VWS V14.01,2013-04-27 14:27:00,
2013-04-27 09:28:00,55.9,54.5,30.40,NE,38,1.0,4.0,95,0.00,,---,0.55,VWS V14.01,2013-04-27 14:28:00,
2013-04-27 09:29:00,55.9,54.2,30.40,NE,38,0.0,4.0,94,0.00,,---,0.55,VWS V14.01,2013-04-27 14:29:00,
2013-04-27 09:30:00,55.9,54.2,30.40,NE,38,1.0,4.0,94,0.00,,---,0.55,VWS V14.01,2013-04-27 14:30:00,
2013-04-27 09:31:00,55.9,54.2,30.40,NE,38,0.0,2.0,94,0.00,,---,0.55,VWS V14.01,2013-04-27 14:31:00,
2013-04-27 09:32:00,55.9,54.2,30.40,NE,38,0.0,2.0,94,0.00,,---,0.55,VWS V14.01,2013-04-27 14:32:00,
2013-04-27 09:33:00,55.9,54.2,30.40,NE,38,0.0,2.0,94,0.00,,---,0.55,VWS V14.01,2013-04-27 14:33:00,
2013-04-27 09:34:00,55.9,54.2,30.40,NE,38,0.0,2.0,94,0.00,,---,0.55,VWS V14.01,2013-04-27 14:34:00,
2013-04-27 09:35:00,55.9,54.2,30.40,NE,38,4.0,4.0,94,0.00,,---,0.55,VWS V14.01,2013-04-27 14:35:00,
2013-04-27 09:36:00,55.9,54.2,30.40,NW,315,3.0,5.0,94,0.00,,---,0.55,VWS V14.01,2013-04-27 14:36:00,
2013-04-27 09:37:00,55.9,54.2,30.40,NW,315,3.0,5.0,94,0.00,,---,0.55,VWS V14.01,2013-04-27 14:37:00,
2013-04-27 09:38:00,56.0,54.3,30.40,NW,315,3.0,5.0,94,0.00,,---,0.55,VWS V14.01,2013-04-27 14:38:00,
2013-04-27 09:39:00,56.0,54.3,30.40,NW,315,2.0,5.0,94,0.00,,---,0.55,VWS V14.01,2013-04-27 14:39:00,
2013-04-27 09:40:00,56.0,54.3,30.40,NW,315,0.0,5.0,94,0.00,,---,0.55,VWS V14.01,2013-04-27 14:40:00,
2013-04-27 09:41:00,56.0,54.3,30.40,NW,315,0.0,0.0,94,0.00,,---,0.55,VWS V14.01,2013-04-27 14:41:00,
2013-04-27 09:42:00,56.0,54.3,30.40,NW,315,2.0,2.0,94,0.01,,---,0.56,VWS V14.01,2013-04-27 14:42:00,
2013-04-27 09:43:00,56.0,54.3,30.40,NW,315,2.0,2.0,94,0.01,,---,0.56,VWS V14.01,2013-04-27 14:43:00,
2013-04-27 09:44:00,56.0,54.3,30.40,NW,315,0.0,2.0,94,0.01,,---,0.56,VWS V14.01,2013-04-27 14:44:00,
2013-04-27 09:45:00,56.0,54.3,30.40,NW,315,0.0,2.0,94,0.01,,---,0.56,VWS V14.01,2013-04-27 14:45:00,
2013-04-27 09:46:00,56.0,54.3,30.40,NW,322,2.0,4.0,94,0.01,,---,0.56,VWS V14.01,2013-04-27 14:46:00,
2013-04-27 09:47:00,56.0,54.3,30.40,NW,322,0.0,4.0,94,0.01,,---,0.56,VWS V14.01,2013-04-27 14:47:00,
2013-04-27 09:48:00,56.0,54.3,30.40,NW,322,2.0,4.0,94,0.01,,---,0.56,VWS V14.01,2013-04-27 14:48:00,
2013-04-27 09:49:00,56.0,54.3,30.40,NW,322,0.0,4.0,94,0.01,,---,0.56,VWS V14.01,2013-04-27 14:49:00,
2013-04-27 09:50:00,56.0,54.3,30.40,NW,322,1.0,4.0,94,0.01,,---,0.56,VWS V14.01,2013-04-27 14:50:00,
2013-04-27 09:51:00,56.0,54.3,30.40,NW,322,0.0,1.0,94,0.01,,---,0.56,VWS V14.01,2013-04-27 14:51:00,
2013-04-27 09:52:00,56.0,54.3,30.40,NW,322,0.0,1.0,94,0.01,,---,0.56,VWS V14.01,2013-04-27 14:52:00,
2013-04-27 09:53:00,56.0,54.3,30.40,NW,322,0.0,1.0,94,0.02,,---,0.57,VWS V14.01,2013-04-27 14:53:00,
2013-04-27 09:54:00,56.0,54.3,30.40,NW,322,0.0,1.0,94,0.02,,---,0.57,VWS V14.01,2013-04-27 14:54:00,
2013-04-27 09:55:00,56.0,54.3,30.40,NW,322,0.0,1.0,94,0.02,,---,0.57,VWS V14.01,2013-04-27 14:55:00,
2013-04-27 09:56:00,56.2,54.5,30.40,NW,322,0.0,1.0,94,0.02,,---,0.57,VWS V14.01,2013-04-27 14:56:00,
2013-04-27 09:57:00,56.2,54.5,30.40,NW,322,0.0,1.0,94,0.02,,---,0.57,VWS V14.01,2013-04-27 14:57:00,
2013-04-27 09:58:00,56.2,54.5,30.40,NW,322,0.0,1.0,94,0.02,,---,0.57,VWS V14.01,2013-04-27 14:58:00,
2013-04-27 09:59:00,56.2,54.8,30.40,NW,322,0.0,1.0,95,0.03,,---,0.58,VWS V14.01,2013-04-27 14:59:00,
2013-04-27 10:00:00,56.2,54.8,30.40,NW,322,0.0,1.0,95,0.03,,---,0.58,VWS V14.01,2013-04-27 15:00:00,
2013-04-27 10:01:00,56.2,54.5,30.40,NW,322,0.0,0.0,94,0.03,,---,0.58,VWS V14.01,2013-04-27 15:01:00,
2013-04-27 10:02:00,56.3,54.6,30.40,NW,322,0.0,0.0,94,0.03,,---,0.58,VWS V14.01,2013-04-27 15:02:00,
2013-04-27 10:03:00,56.3,54.9,30.40,NW,322,0.0,0.0,95,0.03,,---,0.58,VWS V14.01,2013-04-27 15:03:00,
2013-04-27 10:04:00,56.5,55.1,30.40,NW,322,0.0,0.0,95,0.03,,---,0.58,VWS V14.01,2013-04-27 15:04:00,
2013-04-27 10:05:00,56.5,55.1,30.40,NW,322,0.0,0.0,95,0.03,,---,0.58,VWS V14.01,2013-04-27 15:05:00,
2013-04-27 10:06:00,56.6,55.2,30.40,NW,322,0.0,0.0,95,0.03,,---,0.58,VWS V14.01,2013-04-27 15:06:00,
2013-04-27 10:07:00,56.6,55.2,30.40,NW,322,0.0,0.0,95,0.03,,---,0.58,VWS V14.01,2013-04-27 15:07:00,
2013-04-27 10:08:00,56.6,54.9,30.40,NW,322,0.0,1.0,94,0.03,,---,0.58,VWS V14.01,2013-04-27 15:08:00,
2013-04-27 10:09:00,56.6,54.9,30.40,NW,322,3.0,3.0,94,0.03,,---,0.58,VWS V14.01,2013-04-27 15:09:00,
2013-04-27 10:10:00,56.6,54.9,30.40,NW,322,0.0,3.0,94,0.03,,---,0.58,VWS V14.01,2013-04-27 15:10:00,
2013-04-27 10:11:00,56.6,54.9,30.40,NW,322,1.0,3.0,94,0.03,,---,0.58,VWS V14.01,2013-04-27 15:11:00,
2013-04-27 10:12:00,56.6,54.9,30.40,NW,322,2.0,3.0,94,0.03,,---,0.58,VWS V14.01,2013-04-27 15:12:00,
2013-04-27 10:13:00,56.6,54.9,30.40,NW,322,2.0,3.0,94,0.03,,---,0.58,VWS V14.01,2013-04-27 15:13:00,
2013-04-27 10:14:00,56.6,54.9,30.40,NW,322,2.0,3.0,94,0.03,,---,0.58,VWS V14.01,2013-04-27 15:14:00,
2013-04-27 10:15:00,56.6,54.9,30.40,NW,322,0.0,3.0,94,0.03,,---,0.58,VWS V14.01,2013-04-27 15:15:00,
2013-04-27 10:16:00,56.7,55.0,30.40,NW,322,0.0,3.0,94,0.03,,---,0.58,VWS V14.01,2013-04-27 15:16:00,
2013-04-27 10:17:00,56.7,55.0,30.40,NW,322,2.0,3.0,94,0.03,,---,0.58,VWS V14.01,2013-04-27 15:17:00,
2013-04-27 10:18:00,56.7,55.0,30.40,NW,322,0.0,3.0,94,0.03,,---,0.58,VWS V14.01,2013-04-27 15:18:00,
2013-04-27 10:19:00,56.7,55.0,30.40,NW,322,1.0,3.0,94,0.03,,---,0.58,VWS V14.01,2013-04-27 15:19:00,
2013-04-27 10:20:00,56.7,55.0,30.40,NW,322,2.0,3.0,94,0.03,,---,0.58,VWS V14.01,2013-04-27 15:20:00,
2013-04-27 10:21:00,56.7,55.0,30.40,NW,322,3.0,3.0,94,0.03,,---,0.58,VWS V14.01,2013-04-27 15:21:00,
2013-04-27 10:22:00,56.7,55.0,30.40,NW,322,1.0,3.0,94,0.03,,---,0.58,VWS V14.01,2013-04-27 15:22:00,
2013-04-27 10:23:00,56.7,55.0,30.40,NW,322,0.0,3.0,94,0.03,,---,0.58,VWS V14.01,2013-04-27 15:23:00,
2013-04-27 10:24:00,56.7,55.0,30.40,NW,322,2.0,3.0,94,0.03,,---,0.58,VWS V14.01,2013-04-27 15:24:00,
2013-04-27 10:25:00,56.7,55.0,30.40,NW,322,0.0,3.0,94,0.03,,---,0.58,VWS V14.01,2013-04-27 15:25:00,
2013-04-27 10:26:00,56.7,55.0,30.40,NW,322,0.0,3.0,94,0.03,,---,0.58,VWS V14.01,2013-04-27 15:26:00,
2013-04-27 10:27:00,56.6,54.9,30.40,NW,322,0.0,3.0,94,0.03,,---,0.58,VWS V14.01,2013-04-27 15:27:00,
2013-04-27 10:28:00,56.6,54.9,30.40,NW,322,0.0,3.0,94,0.03,,---,0.58,VWS V14.01,2013-04-27 15:28:00,
2013-04-27 10:29:00,56.6,54.9,30.40,NW,322,0.0,3.0,94,0.03,,---,0.58,VWS V14.01,2013-04-27 15:29:00,
2013-04-27 10:30:00,56.9,55.2,30.40,NW,322,0.0,3.0,94,0.03,,---,0.58,VWS V14.01,2013-04-27 15:30:00,
2013-04-27 10:31:00,56.7,55.0,30.40,NW,322,0.0,0.0,94,0.03,,---,0.58,VWS V14.01,2013-04-27 15:31:00,
2013-04-27 10:32:00,56.7,55.0,30.40,NW,322,0.0,2.0,94,0.03,,---,0.58,VWS V14.01,2013-04-27 15:32:00,
2013-04-27 10:33:00,56.7,55.0,30.40,NW,322,0.0,2.0,94,0.03,,---,0.58,VWS V14.01,2013-04-27 15:33:00,
2013-04-27 10:34:00,56.7,55.0,30.40,NW,322,0.0,2.0,94,0.03,,---,0.58,VWS V14.01,2013-04-27 15:34:00,
2013-04-27 10:35:00,56.7,55.0,30.40,NW,322,0.0,2.0,94,0.03,,---,0.58,VWS V14.01,2013-04-27 15:35:00,
2013-04-27 10:36:00,56.7,55.0,30.40,NW,322,0.0,2.0,94,0.03,,---,0.58,VWS V14.01,2013-04-27 15:36:00,
2013-04-27 10:37:00,56.9,55.2,30.40,NW,322,2.0,2.0,94,0.03,,---,0.58,VWS V14.01,2013-04-27 15:37:00,
2013-04-27 10:38:00,56.9,55.2,30.40,NW,322,0.0,2.0,94,0.03,,---,0.58,VWS V14.01,2013-04-27 15:38:00,
2013-04-27 10:39:00,56.9,55.2,30.40,NW,322,0.0,2.0,94,0.03,,---,0.58,VWS V14.01,2013-04-27 15:39:00,
2013-04-27 10:40:00,56.9,55.2,30.40,NW,322,0.0,2.0,94,0.03,,---,0.58,VWS V14.01,2013-04-27 15:40:00,
2013-04-27 10:41:00,57.0,55.3,30.40,NW,322,0.0,0.0,94,0.03,,---,0.58,VWS V14.01,2013-04-27 15:41:00,
2013-04-27 10:42:00,57.0,55.3,30.40,NW,322,0.0,1.0,94,0.03,,---,0.58,VWS V14.01,2013-04-27 15:42:00,
2013-04-27 10:43:00,57.0,55.3,30.40,NW,322,0.0,1.0,94,0.03,,---,0.58,VWS V14.01,2013-04-27 15:43:00,
2013-04-27 10:44:00,57.2,55.5,30.40,NW,322,0.0,2.0,94,0.03,,---,0.58,VWS V14.01,2013-04-27 15:44:00,
2013-04-27 10:45:00,57.2,55.5,30.40,NW,322,0.0,2.0,94,0.03,,---,0.58,VWS V14.01,2013-04-27 15:45:00,
2013-04-27 10:46:00,57.0,55.3,30.40,NW,322,0.0,2.0,94,0.03,,---,0.58,VWS V14.01,2013-04-27 15:46:00,
2013-04-27 10:47:00,57.0,55.3,30.40,NW,322,0.0,2.0,94,0.03,,---,0.58,VWS V14.01,2013-04-27 15:47:00,
2013-04-27 10:48:00,57.2,55.5,30.40,NNW,337,1.0,4.0,94,0.03,,---,0.58,VWS V14.01,2013-04-27 15:48:00,
2013-04-27 10:49:00,57.2,55.5,30.40,NNW,337,0.0,4.0,94,0.03,,---,0.58,VWS V14.01,2013-04-27 15:49:00,
2013-04-27 10:50:00,57.2,55.5,30.40,NNW,337,3.0,4.0,94,0.03,,---,0.58,VWS V14.01,2013-04-27 15:50:00,
2013-04-27 10:51:00,57.0,55.3,30.40,NNW,337,0.0,3.0,94,0.02,,---,0.58,VWS V14.01,2013-04-27 15:51:00,
2013-04-27 10:52:00,57.2,55.5,30.40,NNW,337,3.0,3.0,94,0.02,,---,0.58,VWS V14.01,2013-04-27 15:52:00,
2013-04-27 10:53:00,57.2,55.2,30.40,NNW,337,0.0,3.0,93,0.02,,---,0.58,VWS V14.01,2013-04-27 15:53:00,
2013-04-27 10:54:00,57.2,55.5,30.40,NNW,337,0.0,3.0,94,0.02,,---,0.58,VWS V14.01,2013-04-27 15:54:00,
2013-04-27 10:55:00,57.2,55.2,30.40,NNW,337,3.0,3.0,93,0.02,,---,0.58,VWS V14.01,2013-04-27 15:55:00,
2013-04-27 10:56:00,57.2,55.2,30.40,NNW,337,3.0,4.0,93,0.02,,---,0.58,VWS V14.01,2013-04-27 15:56:00,
2013-04-27 10:57:00,57.0,55.0,30.40,NNW,337,2.0,4.0,93,0.02,,---,0.58,VWS V14.01,2013-04-27 15:57:00,
2013-04-27 10:58:00,57.0,55.0,30.40,NNW,337,2.0,4.0,93,0.02,,---,0.58,VWS V14.01,2013-04-27 15:58:00,
2013-04-27 10:59:00,57.2,55.2,30.40,NNW,333,0.0,4.0,93,0.02,,---,0.58,VWS V14.01,2013-04-27 15:59:00,
2013-04-27 11:00:00,57.2,55.2,30.41,NNW,333,0.0,4.0,93,0.02,,---,0.58,VWS V14.01,2013-04-27 16:00:00,
2013-04-27 11:01:00,57.2,55.2,30.41,NNW,333,1.0,3.0,93,0.00,,---,0.58,VWS V14.01,2013-04-27 16:01:00,
2013-04-27 11:02:00,57.2,55.2,30.41,NNW,333,2.0,3.0,93,0.00,,---,0.58,VWS V14.01,2013-04-27 16:02:00,
2013-04-27 11:03:00,57.2,55.2,30.41,NNW,333,0.0,3.0,93,0.00,,---,0.58,VWS V14.01,2013-04-27 16:03:00,
2013-04-27 11:04:00,57.2,55.2,30.41,NNW,333,1.0,3.0,93,0.00,,---,0.58,VWS V14.01,2013-04-27 16:04:00,
2013-04-27 11:05:00,57.2,55.2,30.41,NNW,333,3.0,3.0,93,0.00,,---,0.58,VWS V14.01,2013-04-27 16:05:00,
2013-04-27 11:06:00,57.2,55.2,30.41,NNW,333,0.0,3.0,93,0.00,,---,0.58,VWS V14.01,2013-04-27 16:06:00,
2013-04-27 11:07:00,57.2,55.2,30.41,NNW,333,2.0,4.0,93,0.00,,---,0.58,VWS V14.01,2013-04-27 16:07:00,
2013-04-27 11:08:00,57.2,55.2,30.41,NNW,333,1.0,4.0,93,0.00,,---,0.58,VWS V14.01,2013-04-27 16:08:00,
2013-04-27 11:09:00,57.2,55.2,30.41,NNW,333,2.0,4.0,93,0.00,,---,0.58,VWS V14.01,2013-04-27 16:09:00,
2013-04-27 11:10:00,57.2,55.2,30.41,NNW,333,1.0,4.0,93,0.00,,---,0.58,VWS V14.01,2013-04-27 16:10:00,
2013-04-27 11:11:00,57.3,55.3,30.41,NNW,333,2.0,4.0,93,0.00,,---,0.58,VWS V14.01,2013-04-27 16:11:00,
2013-04-27 11:12:00,57.3,55.3,30.41,NNW,333,0.0,4.0,93,0.00,,---,0.58,VWS V14.01,2013-04-27 16:12:00,
2013-04-27 11:13:00,57.3,55.3,30.41,NNW,333,3.0,4.0,93,0.00,,---,0.58,VWS V14.01,2013-04-27 16:13:00,
2013-04-27 11:14:00,57.3,55.3,30.41,NNW,333,3.0,4.0,93,0.00,,---,0.58,VWS V14.01,2013-04-27 16:14:00,
2013-04-27 11:15:00,57.3,55.3,30.41,NNW,333,3.0,4.0,93,0.00,,---,0.58,VWS V14.01,2013-04-27 16:15:00,
2013-04-27 11:16:00,57.3,55.3,30.41,NNW,333,3.0,4.0,93,0.00,,---,0.58,VWS V14.01,2013-04-27 16:16:00,
2013-04-27 11:17:00,57.3,55.3,30.41,NNW,333,1.0,4.0,93,0.00,,---,0.58,VWS V14.01,2013-04-27 16:17:00,
2013-04-27 11:18:00,57.5,55.5,30.41,NNW,333,2.0,4.0,93,0.00,,---,0.58,VWS V14.01,2013-04-27 16:18:00,
2013-04-27 11:19:00,57.5,55.5,30.41,NNW,333,0.0,4.0,93,0.00,,---,0.58,VWS V14.01,2013-04-27 16:19:00,
2013-04-27 11:20:00,57.6,55.6,30.41,NNW,333,0.0,4.0,93,0.00,,---,0.58,VWS V14.01,2013-04-27 16:20:00,
2013-04-27 11:21:00,57.6,55.6,30.41,NNW,333,2.0,2.0,93,0.00,,---,0.58,VWS V14.01,2013-04-27 16:21:00,
2013-04-27 11:22:00,57.6,55.6,30.41,NNW,333,1.0,3.0,93,0.00,,---,0.58,VWS V14.01,2013-04-27 16:22:00,
2013-04-27 11:23:00,57.6,55.6,30.41,NNW,333,1.0,3.0,93,0.00,,---,0.58,VWS V14.01,2013-04-27 16:23:00,
2013-04-27 11:24:00,57.6,55.6,30.41,NNW,333,1.0,3.0,93,0.00,,---,0.58,VWS V14.01,2013-04-27 16:24:00,
2013-04-27 11:25:00,57.6,55.6,30.41,NNW,333,2.0,4.0,93,0.00,,---,0.58,VWS V14.01,2013-04-27 16:25:00,
2013-04-27 11:26:00,57.6,55.6,30.41,NNW,333,1.0,4.0,93,0.00,,---,0.58,VWS V14.01,2013-04-27 16:26:00,
2013-04-27 11:27:00,58.0,56.0,30.41,NNW,333,2.0,4.0,93,0.00,,---,0.58,VWS V14.01,2013-04-27 16:27:00,
2013-04-27 11:28:00,58.0,56.0,30.41,NNW,336,2.0,4.0,93,0.00,,---,0.58,VWS V14.01,2013-04-27 16:28:00,
2013-04-27 11:29:00,58.0,56.0,30.41,NNW,336,2.0,4.0,93,0.00,,---,0.58,VWS V14.01,2013-04-27 16:29:00,
2013-04-27 11:30:00,58.0,56.0,30.41,NNW,336,3.0,4.0,93,0.00,,---,0.58,VWS V14.01,2013-04-27 16:30:00,
2013-04-27 11:31:00,58.0,55.7,30.41,NNW,336,2.0,3.0,92,0.00,,---,0.58,VWS V14.01,2013-04-27 16:31:00,
2013-04-27 11:32:00,58.0,55.7,30.41,NNW,331,1.0,5.0,92,0.00,,---,0.58,VWS V14.01,2013-04-27 16:32:00,
2013-04-27 11:33:00,58.0,55.7,30.41,NNW,331,3.0,5.0,92,0.00,,---,0.58,VWS V14.01,2013-04-27 16:33:00,
2013-04-27 11:34:00,58.0,55.7,30.41,NNW,331,3.0,5.0,92,0.00,,---,0.58,VWS V14.01,2013-04-27 16:34:00,
2013-04-27 11:35:00,58.0,55.7,30.41,NNW,331,3.0,5.0,92,0.00,,---,0.58,VWS V14.01,2013-04-27 16:35:00,
2013-04-27 11:36:00,57.6,55.3,30.41,NNW,331,0.0,5.0,92,0.00,,---,0.58,VWS V14.01,2013-04-27 16:36:00,
2013-04-27 11:37:00,57.8,55.5,30.41,NNW,331,1.0,5.0,92,0.00,,---,0.58,VWS V14.01,2013-04-27 16:37:00,
2013-04-27 11:38:00,57.8,55.5,30.41,NNW,331,2.0,5.0,92,0.00,,---,0.58,VWS V14.01,2013-04-27 16:38:00,
2013-04-27 11:39:00,57.8,55.5,30.41,NNW,331,1.0,5.0,92,0.00,,---,0.58,VWS V14.01,2013-04-27 16:39:00,
2013-04-27 11:40:00,57.8,55.5,30.41,NNW,331,1.0,3.0,92,0.00,,---,0.58,VWS V14.01,2013-04-27 16:40:00,
2013-04-27 11:41:00,57.6,55.3,30.41,NNW,331,1.0,3.0,92,0.00,,---,0.58,VWS V14.01,2013-04-27 16:41:00,
2013-04-27 11:42:00,57.6,55.3,30.41,NNW,331,2.0,3.0,92,0.00,,---,0.58,VWS V14.01,2013-04-27 16:42:00,
2013-04-27 11:43:00,57.6,55.3,30.41,NW,325,3.0,4.0,92,0.00,,---,0.58,VWS V14.01,2013-04-27 16:43:00,
2013-04-27 11:44:00,57.8,55.5,30.41,NW,324,2.0,4.0,92,0.00,,---,0.58,VWS V14.01,2013-04-27 16:44:00,
2013-04-27 11:45:00,57.8,55.5,30.41,NW,324,2.0,4.0,92,0.00,,---,0.58,VWS V14.01,2013-04-27 16:45:00,
2013-04-27 11:46:00,57.8,55.5,30.41,NW,325,0.0,4.0,92,0.00,,---,0.58,VWS V14.01,2013-04-27 16:46:00,
2013-04-27 11:47:00,57.8,55.5,30.41,West,281,6.0,6.0,92,0.00,,---,0.58,VWS V14.01,2013-04-27 16:47:00,
2013-04-27 11:48:00,57.8,55.5,30.41,WNW,282,2.0,6.0,92,0.00,,---,0.58,VWS V14.01,2013-04-27 16:48:00,
2013-04-27 11:49:00,57.8,55.5,30.41,WNW,296,4.0,6.0,92,0.00,,---,0.58,VWS V14.01,2013-04-27 16:49:00,
2013-04-27 11:50:00,57.8,55.5,30.41,NW,304,3.0,6.0,92,0.00,,---,0.58,VWS V14.01,2013-04-27 16:50:00,
2013-04-27 11:51:00,57.8,55.5,30.41,WNW,300,5.0,5.0,92,0.00,,---,0.58,VWS V14.01,2013-04-27 16:51:00,
2013-04-27 11:52:00,57.8,55.2,30.41,WNW,300,4.0,6.0,91,0.00,,---,0.58,VWS V14.01,2013-04-27 16:52:00,
2013-04-27 11:53:00,57.8,55.2,30.41,WNW,292,4.0,6.0,91,0.00,,---,0.58,VWS V14.01,2013-04-27 16:53:00,
2013-04-27 11:54:00,57.8,55.2,30.41,WNW,292,2.0,6.0,91,0.00,,---,0.58,VWS V14.01,2013-04-27 16:54:00,
2013-04-27 11:55:00,57.8,55.2,30.41,WNW,296,5.0,6.0,91,0.00,,---,0.58,VWS V14.01,2013-04-27 16:55:00,
2013-04-27 11:56:00,57.8,55.2,30.41,WNW,296,4.0,6.0,91,0.00,,---,0.58,VWS V14.01,2013-04-27 16:56:00,
2013-04-27 11:57:00,57.8,55.2,30.41,WNW,296,2.0,6.0,91,0.00,,---,0.58,VWS V14.01,2013-04-27 16:57:00,
2013-04-27 11:58:00,57.6,55.0,30.41,WNW,298,2.0,6.0,91,0.00,,---,0.58,VWS V14.01,2013-04-27 16:58:00,
2013-04-27 11:59:00,57.6,55.0,30.41,WNW,298,3.0,6.0,91,0.00,,---,0.58,VWS V14.01,2013-04-27 16:59:00,
2013-04-27 12:00:00,57.6,55.0,30.41,WNW,298,3.0,6.0,91,0.00,,---,0.58,VWS V14.01,2013-04-27 17:00:00,
2013-04-27 12:01:00,57.6,55.0,30.41,West,280,3.0,6.0,91,0.00,,---,0.58,VWS V14.01,2013-04-27 17:01:00,
2013-04-27 12:02:00,57.6,55.0,30.41,WNW,298,4.0,6.0,91,0.00,,---,0.58,VWS V14.01,2013-04-27 17:02:00,
2013-04-27 12:03:00,57.6,55.0,30.41,West,272,7.0,7.0,91,0.00,,---,0.58,VWS V14.01,2013-04-27 17:03:00,
2013-04-27 12:04:00,57.6,55.0,30.41,WNW,289,3.0,7.0,91,0.00,,---,0.58,VWS V14.01,2013-04-27 17:04:00,
2013-04-27 12:05:00,57.6,55.0,30.41,WNW,296,4.0,7.0,91,0.00,,---,0.58,VWS V14.01,2013-04-27 17:05:00,
2013-04-27 12:06:00,57.6,55.0,30.41,WNW,298,5.0,7.0,91,0.00,,---,0.58,VWS V14.01,2013-04-27 17:06:00,
2013-04-27 12:07:00,57.6,55.0,30.41,NW,304,5.0,7.0,91,0.00,,---,0.58,VWS V14.01,2013-04-27 17:07:00,
2013-04-27 12:08:00,57.6,55.0,30.41,NW,304,4.0,7.0,91,0.00,,---,0.58,VWS V14.01,2013-04-27 17:08:00,
2013-04-27 12:09:00,57.6,55.0,30.41,NW,304,3.0,7.0,91,0.00,,---,0.58,VWS V14.01,2013-04-27 17:09:00,
2013-04-27 12:10:00,57.6,55.0,30.41,NW,304,4.0,7.0,91,0.00,,---,0.58,VWS V14.01,2013-04-27 17:10:00,
2013-04-27 12:11:00,57.6,55.0,30.41,NW,321,4.0,6.0,91,0.00,,---,0.58,VWS V14.01,2013-04-27 17:11:00,
2013-04-27 12:12:00,57.6,55.0,30.41,NW,319,6.0,6.0,91,0.00,,---,0.58,VWS V14.01,2013-04-27 17:12:00,
2013-04-27 12:13:00,57.6,55.0,30.41,NW,317,6.0,6.0,91,0.00,,---,0.58,VWS V14.01,2013-04-27 17:13:00,
2013-04-27 12:14:00,57.6,55.0,30.41,WNW,301,7.0,9.0,91,0.00,,---,0.58,VWS V14.01,2013-04-27 17:14:00,
2013-04-27 12:15:00,57.6,55.0,30.41,NW,309,1.0,9.0,91,0.00,,---,0.58,VWS V14.01,2013-04-27 17:15:00,
2013-04-27 12:16:00,57.6,55.0,30.41,NW,309,2.0,9.0,91,0.00,,---,0.58,VWS V14.01,2013-04-27 17:16:00,
2013-04-27 12:17:00,57.6,55.0,30.41,WNW,296,4.0,9.0,91,0.00,,---,0.58,VWS V14.01,2013-04-27 17:17:00,
2013-04-27 12:18:00,57.6,55.0,30.41,NW,310,5.0,9.0,91,0.00,,---,0.58,VWS V14.01,2013-04-27 17:18:00,
2013-04-27 12:19:00,57.6,55.0,30.41,NW,310,4.0,9.0,91,0.00,,---,0.58,VWS V14.01,2013-04-27 17:19:00,
2013-04-27 12:20:00,57.6,55.0,30.41,WNW,298,4.0,9.0,91,0.00,,---,0.58,VWS V14.01,2013-04-27 17:20:00,
2013-04-27 12:21:00,57.6,55.0,30.41,WNW,298,5.0,6.0,91,0.00,,---,0.58,VWS V14.01,2013-04-27 17:21:00,
2013-04-27 12:22:00,57.6,55.0,30.41,WNW,301,4.0,6.0,91,0.00,,---,0.58,VWS V14.01,2013-04-27 17:22:00,
2013-04-27 12:23:00,57.6,55.0,30.41,WNW,301,3.0,6.0,91,0.00,,---,0.58,VWS V14.01,2013-04-27 17:23:00,
2013-04-27 12:24:00,57.6,55.0,30.41,WNW,301,5.0,6.0,91,0.00,,---,0.58,VWS V14.01,2013-04-27 17:24:00,
2013-04-27 12:25:00,57.6,55.0,30.41,WNW,295,3.0,6.0,91,0.00,,---,0.58,VWS V14.01,2013-04-27 17:25:00,
2013-04-27 12:26:00,57.6,55.0,30.41,NW,305,4.0,6.0,91,0.00,,---,0.58,VWS V14.01,2013-04-27 17:26:00,
2013-04-27 12:27:00,57.6,55.0,30.41,WNW,288,4.0,6.0,91,0.00,,---,0.58,VWS V14.01,2013-04-27 17:27:00,
2013-04-27 12:28:00,57.6,55.0,30.41,West,280,4.0,6.0,91,0.00,,---,0.58,VWS V14.01,2013-04-27 17:28:00,
2013-04-27 12:29:00,57.6,55.0,30.41,WNW,289,4.0,6.0,91,0.00,,---,0.58,VWS V14.01,2013-04-27 17:29:00,
2013-04-27 12:30:00,57.6,55.0,30.41,WNW,289,2.0,6.0,91,0.00,,---,0.58,VWS V14.01,2013-04-27 17:30:00,
2013-04-27 12:31:00,57.6,55.0,30.41,WNW,295,5.0,5.0,91,0.00,,---,0.58,VWS V14.01,2013-04-27 17:31:00,
2013-04-27 12:32:00,57.6,55.0,30.41,WNW,295,0.0,5.0,91,0.00,,---,0.58,VWS V14.01,2013-04-27 17:32:00,
2013-04-27 12:33:00,57.6,55.0,30.41,WNW,295,4.0,5.0,91,0.00,,---,0.58,VWS V14.01,2013-04-27 17:33:00,
2013-04-27 12:34:00,57.6,55.0,30.41,WNW,295,3.0,5.0,91,0.00,,---,0.58,VWS V14.01,2013-04-27 17:34:00,
2013-04-27 12:35:00,57.6,55.0,30.41,WNW,295,2.0,5.0,91,0.00,,---,0.58,VWS V14.01,2013-04-27 17:35:00,
2013-04-27 12:36:00,57.6,55.0,30.41,WNW,295,2.0,5.0,91,0.00,,---,0.58,VWS V14.01,2013-04-27 17:36:00,
2013-04-27 12:37:00,57.6,55.0,30.41,WNW,295,0.0,5.0,91,0.00,,---,0.58,VWS V14.01,2013-04-27 17:37:00,
2013-04-27 12:38:00,57.6,55.0,30.41,WNW,295,1.0,5.0,91,0.00,,---,0.58,VWS V14.01,2013-04-27 17:38:00,
2013-04-27 12:39:00,57.6,55.0,30.41,WNW,295,5.0,5.0,91,0.00,,---,0.58,VWS V14.01,2013-04-27 17:39:00,
2013-04-27 12:40:00,57.6,55.0,30.41,WNW,295,3.0,4.0,91,0.00,,---,0.58,VWS V14.01,2013-04-27 17:40:00,
2013-04-27 12:41:00,57.6,55.0,30.41,WNW,295,2.0,4.0,91,0.00,,---,0.58,VWS V14.01,2013-04-27 17:41:00,
2013-04-27 12:42:00,57.6,55.0,30.41,NW,317,4.0,5.0,91,0.00,,---,0.58,VWS V14.01,2013-04-27 17:42:00,
2013-04-27 12:43:00,57.6,55.0,30.41,NW,317,2.0,5.0,91,0.00,,---,0.58,VWS V14.01,2013-04-27 17:43:00,
2013-04-27 12:44:00,57.6,55.0,30.41,NW,317,3.0,5.0,91,0.00,,---,0.58,VWS V14.01,2013-04-27 17:44:00,
2013-04-27 12:45:00,57.6,55.0,30.41,NW,317,3.0,5.0,91,0.00,,---,0.58,VWS V14.01,2013-04-27 17:45:00,
2013-04-27 12:46:00,57.8,55.2,30.41,NW,315,3.0,5.0,91,0.00,,---,0.58,VWS V14.01,2013-04-27 17:46:00,
2013-04-27 12:47:00,57.8,55.2,30.41,NW,315,3.0,5.0,91,0.00,,---,0.58,VWS V14.01,2013-04-27 17:47:00,
2013-04-27 12:48:00,57.8,55.2,30.41,NW,315,0.0,5.0,91,0.00,,---,0.58,VWS V14.01,2013-04-27 17:48:00,
2013-04-27 12:49:00,57.8,55.2,30.41,NW,304,8.0,8.0,91,0.00,,---,0.58,VWS V14.01,2013-04-27 17:49:00,
2013-04-27 12:50:00,57.8,55.2,30.41,WNW,301,5.0,9.0,91,0.00,,---,0.58,VWS V14.01,2013-04-27 17:50:00,
2013-04-27 12:51:00,57.6,55.0,30.41,WNW,300,6.0,9.0,91,0.00,,---,0.58,VWS V14.01,2013-04-27 17:51:00,
2013-04-27 12:52:00,57.6,55.0,30.41,WNW,302,4.0,9.0,91,0.00,,---,0.58,VWS V14.01,2013-04-27 17:52:00,
2013-04-27 12:53:00,57.6,55.0,30.41,WNW,303,5.0,9.0,91,0.00,,---,0.58,VWS V14.01,2013-04-27 17:53:00,
2013-04-27 12:54:00,57.6,55.0,30.41,WNW,295,4.0,9.0,91,0.00,,---,0.58,VWS V14.01,2013-04-27 17:54:00,
2013-04-27 12:55:00,57.6,55.0,30.41,WNW,302,5.0,9.0,91,0.00,,---,0.58,VWS V14.01,2013-04-27 17:55:00,
2013-04-27 12:56:00,57.6,55.0,30.41,NW,315,5.0,9.0,91,0.00,,---,0.58,VWS V14.01,2013-04-27 17:56:00,
2013-04-27 12:57:00,57.6,55.0,30.41,NW,317,5.0,9.0,91,0.00,,---,0.58,VWS V14.01,2013-04-27 17:57:00,
2013-04-27 12:58:00,57.5,54.9,30.41,NW,317,3.0,9.0,91,0.00,,---,0.58,VWS V14.01,2013-04-27 17:58:00,
2013-04-27 12:59:00,57.6,55.0,30.41,NW,304,3.0,9.0,91,0.00,,---,0.58,VWS V14.01,2013-04-27 17:59:00,
2013-04-27 13:00:00,57.5,54.9,30.40,WNW,292,4.0,5.0,91,0.00,,---,0.58,VWS V14.01,2013-04-27 18:00:00,
2013-04-27 13:01:00,57.5,54.9,30.40,NW,317,6.0,6.0,91,0.00,,---,0.58,VWS V14.01,2013-04-27 18:01:00,
2013-04-27 13:02:00,57.5,54.9,30.40,WNW,301,5.0,6.0,91,0.00,,---,0.58,VWS V14.01,2013-04-27 18:02:00,
2013-04-27 13:03:00,57.5,54.9,30.40,NW,322,2.0,6.0,91,0.00,,---,0.58,VWS V14.01,2013-04-27 18:03:00,
2013-04-27 13:04:00,57.5,54.9,30.40,NW,320,4.0,6.0,91,0.00,,---,0.58,VWS V14.01,2013-04-27 18:04:00,
2013-04-27 13:05:00,57.5,54.9,30.40,WNW,295,3.0,6.0,91,0.00,,---,0.58,VWS V14.01,2013-04-27 18:05:00,
2013-04-27 13:06:00,57.5,54.9,30.40,WNW,295,4.0,6.0,91,0.00,,---,0.58,VWS V14.01,2013-04-27 18:06:00,
2013-04-27 13:07:00,57.5,54.9,30.40,WNW,300,4.0,6.0,91,0.00,,---,0.58,VWS V14.01,2013-04-27 18:07:00,
2013-04-27 13:08:00,57.5,54.9,30.40,NW,323,4.0,6.0,91,0.00,,---,0.58,VWS V14.01,2013-04-27 18:08:00,
2013-04-27 13:09:00,57.6,55.0,30.40,NW,321,4.0,6.0,91,0.00,,---,0.58,VWS V14.01,2013-04-27 18:09:00,
2013-04-27 13:10:00,57.6,55.0,30.40,NW,318,4.0,6.0,91,0.00,,---,0.58,VWS V14.01,2013-04-27 18:10:00,
2013-04-27 13:11:00,57.6,55.0,30.40,NW,318,2.0,4.0,91,0.00,,---,0.58,VWS V14.01,2013-04-27 18:11:00,
2013-04-27 13:12:00,57.6,55.3,30.40,WNW,284,2.0,4.0,92,0.00,,---,0.58,VWS V14.01,2013-04-27 18:12:00,
2013-04-27 13:13:00,57.6,55.3,30.40,WNW,284,3.0,4.0,92,0.00,,---,0.58,VWS V14.01,2013-04-27 18:13:00,
2013-04-27 13:14:00,57.8,55.5,30.40,WNW,286,3.0,4.0,92,0.00,,---,0.58,VWS V14.01,2013-04-27 18:14:00,
2013-04-27 13:15:00,57.8,55.5,30.40,WNW,297,5.0,7.0,92,0.00,,---,0.58,VWS V14.01,2013-04-27 18:15:00,
2013-04-27 13:16:00,57.8,55.5,30.40,NW,308,3.0,7.0,92,0.00,,---,0.58,VWS V14.01,2013-04-27 18:16:00,
2013-04-27 13:17:00,57.8,55.5,30.40,West,267,6.0,7.0,92,0.00,,---,0.58,VWS V14.01,2013-04-27 18:17:00,
2013-04-27 13:18:00,57.8,55.5,30.40,WNW,293,5.0,7.0,92,0.00,,---,0.58,VWS V14.01,2013-04-27 18:18:00,
2013-04-27 13:19:00,57.8,55.2,30.40,WNW,302,4.0,7.0,91,0.00,,---,0.58,VWS V14.01,2013-04-27 18:19:00,
2013-04-27 13:20:00,57.8,55.2,30.40,WNW,297,4.0,7.0,91,0.00,,---,0.58,VWS V14.01,2013-04-27 18:20:00,
2013-04-27 13:21:00,57.8,55.5,30.40,NW,326,3.0,7.0,92,0.00,,---,0.58,VWS V14.01,2013-04-27 18:21:00,
2013-04-27 13:22:00,58.0,55.7,30.40,West,281,6.0,7.0,92,0.00,,---,0.58,VWS V14.01,2013-04-27 18:22:00,
2013-04-27 13:23:00,57.8,55.5,30.40,West,271,4.0,7.0,92,0.00,,---,0.58,VWS V14.01,2013-04-27 18:23:00,
2013-04-27 13:24:00,57.8,55.5,30.40,WNW,291,6.0,7.0,92,0.00,,---,0.58,VWS V14.01,2013-04-27 18:24:00,
2013-04-27 13:25:00,57.8,55.5,30.40,NW,305,6.0,7.0,92,0.00,,---,0.58,VWS V14.01,2013-04-27 18:25:00,
2013-04-27 13:26:00,58.0,55.7,30.40,WNW,302,4.0,7.0,92,0.00,,---,0.58,VWS V14.01,2013-04-27 18:26:00,
2013-04-27 13:27:00,58.0,55.7,30.40,NW,310,4.0,7.0,92,0.00,,---,0.58,VWS V14.01,2013-04-27 18:27:00,
2013-04-27 13:28:00,58.0,55.7,30.40,NW,306,5.0,7.0,92,0.00,,---,0.58,VWS V14.01,2013-04-27 18:28:00,
2013-04-27 13:29:00,58.0,55.7,30.40,WNW,293,2.0,7.0,92,0.00,,---,0.58,VWS V14.01,2013-04-27 18:29:00,
2013-04-27 13:30:00,58.0,55.7,30.40,NW,315,5.0,7.0,92,0.00,,---,0.58,VWS V14.01,2013-04-27 18:30:00,
2013-04-27 13:31:00,58.0,55.7,30.40,WNW,302,3.0,6.0,92,0.00,,---,0.58,VWS V14.01,2013-04-27 18:31:00,
2013-04-27 13:32:00,58.0,55.7,30.40,WNW,302,3.0,6.0,92,0.00,,---,0.58,VWS V14.01,2013-04-27 18:32:00,
2013-04-27 13:33:00,58.0,55.7,30.40,NW,305,3.0,6.0,92,0.00,,---,0.58,VWS V14.01,2013-04-27 18:33:00,
2013-04-27 13:34:00,58.0,55.7,30.40,WNW,283,5.0,8.0,92,0.00,,---,0.58,VWS V14.01,2013-04-27 18:34:00,
2013-04-27 13:35:00,57.8,55.5,30.40,WNW,298,3.0,9.0,92,0.00,,---,0.58,VWS V14.01,2013-04-27 18:35:00,
2013-04-27 13:36:00,57.8,55.5,30.40,WNW,287,2.0,9.0,92,0.00,,---,0.58,VWS V14.01,2013-04-27 18:36:00,
2013-04-27 13:37:00,57.8,55.5,30.40,NW,314,4.0,9.0,92,0.00,,---,0.58,VWS V14.01,2013-04-27 18:37:00,
2013-04-27 13:38:00,57.6,55.3,30.40,WNW,296,6.0,9.0,92,0.00,,---,0.58,VWS V14.01,2013-04-27 18:38:00,
2013-04-27 13:39:00,57.6,55.0,30.40,NW,306,5.0,9.0,91,0.00,,---,0.58,VWS V14.01,2013-04-27 18:39:00,
2013-04-27 13:40:00,57.6,55.3,30.40,West,281,3.0,9.0,92,0.00,,---,0.58,VWS V14.01,2013-04-27 18:40:00,
2013-04-27 13:41:00,57.8,55.5,30.40,WNW,289,5.0,7.0,92,0.00,,---,0.58,VWS V14.01,2013-04-27 18:41:00,
2013-04-27 13:42:00,57.8,55.5,30.40,WNW,289,5.0,7.0,92,0.00,,---,0.58,VWS V14.01,2013-04-27 18:42:00,
2013-04-27 13:43:00,57.8,55.5,30.40,WNW,289,5.0,7.0,92,0.00,,---,0.58,VWS V14.01,2013-04-27 18:43:00,
2013-04-27 13:44:00,57.8,55.5,30.40,WNW,289,5.0,7.0,92,0.00,,---,0.58,VWS V14.01,2013-04-27 18:44:00,
2013-04-27 13:45:00,57.8,55.5,30.40,WNW,294,3.0,7.0,92,0.00,,---,0.58,VWS V14.01,2013-04-27 18:45:00,
2013-04-27 13:46:00,57.8,55.5,30.40,WNW,294,4.0,7.0,92,0.00,,---,0.58,VWS V14.01,2013-04-27 18:46:00,
2013-04-27 13:47:00,57.8,55.5,30.40,NW,319,10.0,10.0,92,0.00,,---,0.58,VWS V14.01,2013-04-27 18:47:00,
2013-04-27 13:48:00,57.6,55.3,30.40,WNW,298,9.0,13.0,92,0.00,,---,0.58,VWS V14.01,2013-04-27 18:48:00,
2013-04-27 13:49:00,57.6,55.3,30.40,WNW,288,3.0,13.0,92,0.00,,---,0.58,VWS V14.01,2013-04-27 18:49:00,
2013-04-27 13:50:00,57.5,55.2,30.40,WNW,302,7.0,13.0,92,0.00,,---,0.58,VWS V14.01,2013-04-27 18:50:00,
2013-04-27 13:51:00,57.5,55.2,30.40,WNW,300,5.0,5.0,92,0.00,,---,0.58,VWS V14.01,2013-04-27 18:51:00,
2013-04-27 13:52:00,57.5,55.2,30.40,WNW,292,2.0,6.0,92,0.00,,---,0.58,VWS V14.01,2013-04-27 18:52:00,
2013-04-27 13:53:00,57.5,55.2,30.40,NW,307,4.0,6.0,92,0.00,,---,0.58,VWS V14.01,2013-04-27 18:53:00,
2013-04-27 13:54:00,57.5,55.2,30.40,NW,311,12.0,12.0,92,0.00,,---,0.58,VWS V14.01,2013-04-27 18:54:00,
2013-04-27 13:55:00,57.5,55.2,30.40,NW,311,3.0,12.0,92,0.00,,---,0.58,VWS V14.01,2013-04-27 18:55:00,
2013-04-27 13:56:00,57.3,55.0,30.40,NW,304,8.0,12.0,92,0.00,,---,0.58,VWS V14.01,2013-04-27 18:56:00,
2013-04-27 13:57:00,57.3,55.0,30.40,WNW,297,6.0,12.0,92,0.00,,---,0.58,VWS V14.01,2013-04-27 18:57:00,
2013-04-27 13:58:00,57.3,55.0,30.40,NW,310,5.0,12.0,92,0.00,,---,0.58,VWS V14.01,2013-04-27 18:58:00,
2013-04-27 13:59:00,57.3,55.0,30.40,NW,319,5.0,12.0,92,0.00,,---,0.58,VWS V14.01,2013-04-27 18:59:00,
2013-04-27 14:00:00,57.2,54.9,30.41,NW,311,5.0,12.0,92,0.00,,---,0.58,VWS V14.01,2013-04-27 19:00:00,
2013-04-27 14:01:00,57.2,54.9,30.41,West,278,6.0,7.0,92,0.00,,---,0.58,VWS V14.01,2013-04-27 19:01:00,
2013-04-27 14:02:00,57.2,54.9,30.41,WNW,292,6.0,9.0,92,0.00,,---,0.58,VWS V14.01,2013-04-27 19:02:00,
2013-04-27 14:03:00,57.2,54.9,30.41,NW,309,7.0,11.0,92,0.00,,---,0.58,VWS V14.01,2013-04-27 19:03:00,
2013-04-27 14:04:00,57.0,54.7,30.41,NW,309,5.0,11.0,92,0.00,,---,0.58,VWS V14.01,2013-04-27 19:04:00,
2013-04-27 14:05:00,57.0,54.7,30.41,NW,309,4.0,11.0,92,0.00,,---,0.58,VWS V14.01,2013-04-27 19:05:00,
2013-04-27 14:06:00,57.0,54.7,30.41,NW,308,10.0,11.0,92,0.00,,---,0.58,VWS V14.01,2013-04-27 19:06:00,
2013-04-27 14:07:00,57.0,54.7,30.41,WNW,297,10.0,11.0,92,0.00,,---,0.58,VWS V14.01,2013-04-27 19:07:00,
2013-04-27 14:08:00,57.0,54.7,30.41,WNW,302,6.0,12.0,92,0.00,,---,0.58,VWS V14.01,2013-04-27 19:08:00,
2013-04-27 14:09:00,56.9,54.3,30.41,NW,318,5.0,12.0,91,0.00,,---,0.58,VWS V14.01,2013-04-27 19:09:00,
2013-04-27 14:10:00,56.9,54.6,30.41,NW,309,8.0,12.0,92,0.00,,---,0.58,VWS V14.01,2013-04-27 19:10:00,
2013-04-27 14:11:00,56.9,54.6,30.41,NW,314,5.0,8.0,92,0.00,,---,0.58,VWS V14.01,2013-04-27 19:11:00,
2013-04-27 14:12:00,56.9,54.6,30.41,NNW,327,4.0,8.0,92,0.00,,---,0.58,VWS V14.01,2013-04-27 19:12:00,
2013-04-27 14:13:00,56.9,54.6,30.41,WNW,292,3.0,8.0,92,0.00,,---,0.58,VWS V14.01,2013-04-27 19:13:00,
2013-04-27 14:14:00,56.9,54.6,30.41,WNW,302,9.0,10.0,92,0.00,,---,0.58,VWS V14.01,2013-04-27 19:14:00,
2013-04-27 14:15:00,56.9,54.6,30.41,WNW,292,11.0,13.0,92,0.00,,---,0.58,VWS V14.01,2013-04-27 19:15:00,
2013-04-27 14:16:00,56.7,54.4,30.41,NW,312,12.0,13.0,92,0.00,,---,0.58,VWS V14.01,2013-04-27 19:16:00,
2013-04-27 14:17:00,56.7,54.1,30.41,NNW,330,7.0,14.0,91,0.00,,---,0.58,VWS V14.01,2013-04-27 19:17:00,
2013-04-27 14:18:00,56.7,54.1,30.41,NNW,327,5.0,14.0,91,0.00,,---,0.58,VWS V14.01,2013-04-27 19:18:00,
2013-04-27 14:19:00,56.6,54.3,30.41,WNW,293,6.0,14.0,92,0.00,,---,0.58,VWS V14.01,2013-04-27 19:19:00,
2013-04-27 14:20:00,56.6,54.3,30.41,NW,309,10.0,14.0,92,0.00,,---,0.58,VWS V14.01,2013-04-27 19:20:00,
2013-04-27 14:21:00,56.6,54.3,30.41,WNW,296,5.0,10.0,92,0.00,,---,0.58,VWS V14.01,2013-04-27 19:21:00,
2013-04-27 14:22:00,56.6,54.3,30.41,NW,311,10.0,10.0,92,0.00,,---,0.58,VWS V14.01,2013-04-27 19:22:00,
2013-04-27 14:23:00,56.5,54.2,30.41,WNW,299,14.0,14.0,92,0.00,,---,0.58,VWS V14.01,2013-04-27 19:23:00,
2013-04-27 14:24:00,56.5,53.9,30.41,WNW,303,11.0,15.0,91,0.00,,---,0.58,VWS V14.01,2013-04-27 19:24:00,
2013-04-27 14:25:00,56.3,53.7,30.41,NW,315,6.0,15.0,91,0.00,,---,0.58,VWS V14.01,2013-04-27 19:25:00,
2013-04-27 14:26:00,56.3,53.7,30.41,NW,316,6.0,15.0,91,0.00,,---,0.58,VWS V14.01,2013-04-27 19:26:00,
2013-04-27 14:27:00,56.2,53.6,30.41,NW,319,9.0,15.0,91,0.00,,---,0.58,VWS V14.01,2013-04-27 19:27:00,
2013-04-27 14:28:00,56.2,53.6,30.41,NW,317,12.0,15.0,91,0.00,,---,0.58,VWS V14.01,2013-04-27 19:28:00,
2013-04-27 14:29:00,56.2,53.6,30.41,NW,312,11.0,15.0,91,0.00,,---,0.58,VWS V14.01,2013-04-27 19:29:00,
2013-04-27 14:30:00,56.0,53.4,30.41,NW,326,5.0,15.0,91,0.00,,---,0.58,VWS V14.01,2013-04-27 19:30:00,
2013-04-27 14:31:00,56.0,53.4,30.41,NW,318,9.0,10.0,91,0.00,,---,0.58,VWS V14.01,2013-04-27 19:31:00,
2013-04-27 14:32:00,56.0,53.7,30.41,WNW,302,6.0,10.0,92,0.00,,---,0.58,VWS V14.01,2013-04-27 19:32:00,
2013-04-27 14:33:00,56.0,53.4,30.41,NW,317,5.0,10.0,91,0.00,,---,0.58,VWS V14.01,2013-04-27 19:33:00,
2013-04-27 14:34:00,56.0,53.4,30.41,WNW,302,5.0,10.0,91,0.00,,---,0.58,VWS V14.01,2013-04-27 19:34:00,
2013-04-27 14:35:00,55.9,53.3,30.41,NNW,335,6.0,10.0,91,0.00,,---,0.58,VWS V14.01,2013-04-27 19:35:00,
2013-04-27 14:36:00,55.9,53.6,30.41,WNW,302,5.0,10.0,92,0.00,,---,0.58,VWS V14.01,2013-04-27 19:36:00,
2013-04-27 14:37:00,55.9,53.3,30.41,NW,316,8.0,10.0,91,0.00,,---,0.58,VWS V14.01,2013-04-27 19:37:00,
2013-04-27 14:38:00,55.7,53.1,30.41,WNW,290,9.0,11.0,91,0.00,,---,0.58,VWS V14.01,2013-04-27 19:38:00,
2013-04-27 14:39:00,55.7,53.4,30.41,WNW,302,6.0,11.0,92,0.00,,---,0.58,VWS V14.01,2013-04-27 19:39:00,
2013-04-27 14:40:00,55.7,53.4,30.41,WNW,298,9.0,11.0,92,0.00,,---,0.58,VWS V14.01,2013-04-27 19:40:00,
2013-04-27 14:41:00,55.6,53.3,30.41,NW,320,5.0,10.0,92,0.00,,---,0.58,VWS V14.01,2013-04-27 19:41:00,
2013-04-27 14:42:00,55.6,53.3,30.41,NW,306,4.0,10.0,92,0.00,,---,0.58,VWS V14.01,2013-04-27 19:42:00,
2013-04-27 14:43:00,55.6,53.3,30.41,NW,326,6.0,12.0,92,0.00,,---,0.58,VWS V14.01,2013-04-27 19:43:00,
2013-04-27 14:44:00,55.6,53.3,30.41,NNW,332,4.0,12.0,92,0.00,,---,0.58,VWS V14.01,2013-04-27 19:44:00,
2013-04-27 14:45:00,55.6,53.3,30.40,NW,311,6.0,12.0,92,0.00,,---,0.58,VWS V14.01,2013-04-27 19:45:00,
2013-04-27 14:46:00,55.6,53.3,30.40,WNW,302,5.0,12.0,92,0.00,,---,0.58,VWS V14.01,2013-04-27 19:46:00,
2013-04-27 14:47:00,55.6,53.3,30.40,NW,305,4.0,12.0,92,0.00,,---,0.58,VWS V14.01,2013-04-27 19:47:00,
2013-04-27 14:48:00,55.6,53.3,30.40,NW,309,10.0,12.0,92,0.00,,---,0.58,VWS V14.01,2013-04-27 19:48:00,
2013-04-27 14:49:00,55.6,53.3,30.40,NW,323,6.0,12.0,92,0.00,,---,0.58,VWS V14.01,2013-04-27 19:49:00,
2013-04-27 14:50:00,55.6,53.3,30.40,WNW,300,9.0,12.0,92,0.00,,---,0.58,VWS V14.01,2013-04-27 19:50:00,
2013-04-27 14:51:00,55.6,53.3,30.40,NW,305,6.0,9.0,92,0.00,,---,0.58,VWS V14.01,2013-04-27 19:51:00,
2013-04-27 14:52:00,55.6,53.3,30.40,WNW,298,4.0,9.0,92,0.00,,---,0.58,VWS V14.01,2013-04-27 19:52:00,
2013-04-27 14:53:00,55.6,53.3,30.40,WNW,299,4.0,9.0,92,0.00,,---,0.58,VWS V14.01,2013-04-27 19:53:00,
2013-04-27 14:54:00,55.6,53.3,30.40,NW,311,4.0,9.0,92,0.00,,---,0.58,VWS V14.01,2013-04-27 19:54:00,
2013-04-27 14:55:00,55.6,53.3,30.40,WNW,298,6.0,9.0,92,0.00,,---,0.58,VWS V14.01,2013-04-27 19:55:00,
2013-04-27 14:56:00,55.6,53.3,30.40,NW,306,9.0,10.0,92,0.00,,---,0.58,VWS V14.01,2013-04-27 19:56:00,
2013-04-27 14:57:00,55.6,53.3,30.40,NW,304,4.0,10.0,92,0.00,,---,0.58,VWS V14.01,2013-04-27 19:57:00,
2013-04-27 14:58:00,55.6,53.3,30.40,NW,310,2.0,10.0,92,0.00,,---,0.58,VWS V14.01,2013-04-27 19:58:00,
2013-04-27 14:59:00,55.6,53.3,30.40,NW,311,3.0,10.0,92,0.00,,---,0.58,VWS V14.01,2013-04-27 19:59:00,
2013-04-27 15:00:00,55.6,53.3,30.40,NNW,329,4.0,10.0,92,0.00,,---,0.58,VWS V14.01,2013-04-27 20:00:00,
2013-04-27 15:01:00,55.6,53.3,30.40,NNW,328,5.0,6.0,92,0.00,,---,0.58,VWS V14.01,2013-04-27 20:01:00,
2013-04-27 15:02:00,55.6,53.3,30.40,WNW,299,2.0,6.0,92,0.00,,---,0.58,VWS V14.01,2013-04-27 20:02:00,
2013-04-27 15:03:00,55.6,53.3,30.40,NW,309,2.0,6.0,92,0.00,,---,0.58,VWS V14.01,2013-04-27 20:03:00,
2013-04-27 15:04:00,55.6,53.3,30.40,West,267,6.0,6.0,92,0.00,,---,0.58,VWS V14.01,2013-04-27 20:04:00,
2013-04-27 15:05:00,55.6,53.3,30.40,NNW,327,5.0,6.0,92,0.00,,---,0.58,VWS V14.01,2013-04-27 20:05:00,
2013-04-27 15:06:00,55.6,53.3,30.40,West,272,6.0,10.0,92,0.00,,---,0.58,VWS V14.01,2013-04-27 20:06:00,
2013-04-27 15:07:00,55.6,53.3,30.40,WNW,294,6.0,11.0,92,0.00,,---,0.58,VWS V14.01,2013-04-27 20:07:00,
2013-04-27 15:08:00,55.6,53.3,30.40,WNW,294,6.0,11.0,92,0.00,,---,0.58,VWS V14.01,2013-04-27 20:08:00,
2013-04-27 15:09:00,55.4,53.1,30.40,NW,326,3.0,11.0,92,0.00,,---,0.58,VWS V14.01,2013-04-27 20:09:00,
2013-04-27 15:10:00,55.4,53.1,30.40,NW,307,6.0,11.0,92,0.00,,---,0.58,VWS V14.01,2013-04-27 20:10:00,
2013-04-27 15:11:00,55.4,53.1,30.40,NNW,340,6.0,8.0,92,0.00,,---,0.58,VWS V14.01,2013-04-27 20:11:00,
2013-04-27 15:12:00,55.4,53.1,30.40,WNW,284,6.0,8.0,92,0.00,,---,0.58,VWS V14.01,2013-04-27 20:12:00,
2013-04-27 15:13:00,55.4,53.1,30.40,West,281,9.0,9.0,92,0.00,,---,0.58,VWS V14.01,2013-04-27 20:13:00,
2013-04-27 15:14:00,55.3,53.0,30.40,WNW,295,5.0,9.0,92,0.00,,---,0.58,VWS V14.01,2013-04-27 20:14:00,
2013-04-27 15:15:00,55.3,53.0,30.40,WNW,292,5.0,9.0,92,0.00,,---,0.58,VWS V14.01,2013-04-27 20:15:00,
2013-04-27 15:16:00,55.3,53.0,30.40,WNW,290,6.0,9.0,92,0.00,,---,0.58,VWS V14.01,2013-04-27 20:16:00,
2013-04-27 15:17:00,55.1,52.8,30.40,WNW,299,8.0,9.0,92,0.00,,---,0.58,VWS V14.01,2013-04-27 20:17:00,
2013-04-27 15:18:00,55.1,52.8,30.40,WNW,294,14.0,15.0,92,0.00,,---,0.58,VWS V14.01,2013-04-27 20:18:00,
2013-04-27 15:19:00,55.0,52.7,30.40,WNW,294,10.0,15.0,92,0.00,,---,0.58,VWS V14.01,2013-04-27 20:19:00,
2013-04-27 15:20:00,55.0,52.7,30.40,NNW,327,11.0,15.0,92,0.00,,---,0.58,VWS V14.01,2013-04-27 20:20:00,
2013-04-27 15:21:00,54.8,52.2,30.40,West,281,10.0,13.0,91,0.00,,---,0.58,VWS V14.01,2013-04-27 20:21:00,
2013-04-27 15:22:00,54.7,52.4,30.40,NW,313,7.0,13.0,92,0.00,,---,0.58,VWS V14.01,2013-04-27 20:22:00,
2013-04-27 15:23:00,54.7,52.4,30.40,WNW,297,7.0,13.0,92,0.00,,---,0.58,VWS V14.01,2013-04-27 20:23:00,
2013-04-27 15:24:00,54.7,52.4,30.40,NW,310,8.0,13.0,92,0.00,,---,0.58,VWS V14.01,2013-04-27 20:24:00,
2013-04-27 15:25:00,54.5,52.2,30.40,NW,304,10.0,13.0,92,0.00,,---,0.58,VWS V14.01,2013-04-27 20:25:00,
2013-04-27 15:26:00,54.5,52.2,30.40,WNW,290,7.0,13.0,92,0.00,,---,0.58,VWS V14.01,2013-04-27 20:26:00,
2013-04-27 15:27:00,54.5,52.2,30.40,NW,308,6.0,13.0,92,0.00,,---,0.58,VWS V14.01,2013-04-27 20:27:00,
2013-04-27 15:28:00,54.5,52.2,30.40,NW,305,7.0,13.0,92,0.00,,---,0.58,VWS V14.01,2013-04-27 20:28:00,
2013-04-27 15:29:00,54.5,52.2,30.41,WNW,303,5.0,13.0,92,0.00,,---,0.58,VWS V14.01,2013-04-27 20:29:00,
2013-04-27 15:30:00,54.5,52.2,30.41,NW,317,4.0,13.0,92,0.00,,---,0.58,VWS V14.01,2013-04-27 20:30:00,
2013-04-27 15:31:00,54.5,52.2,30.41,NW,315,11.0,13.0,92,0.00,,---,0.58,VWS V14.01,2013-04-27 20:31:00,
2013-04-27 15:32:00,54.4,52.1,30.41,NW,310,9.0,13.0,92,0.00,,---,0.58,VWS V14.01,2013-04-27 20:32:00,
2013-04-27 15:33:00,54.4,52.1,30.41,NW,309,7.0,13.0,92,0.00,,---,0.58,VWS V14.01,2013-04-27 20:33:00,
2013-04-27 15:34:00,54.4,52.1,30.41,NW,319,3.0,13.0,92,0.00,,---,0.58,VWS V14.01,2013-04-27 20:34:00,
2013-04-27 15:35:00,54.4,52.1,30.41,NNW,336,5.0,13.0,92,0.00,,---,0.58,VWS V14.01,2013-04-27 20:35:00,
2013-04-27 15:36:00,54.4,52.1,30.41,WNW,301,6.0,13.0,92,0.00,,---,0.58,VWS V14.01,2013-04-27 20:36:00,
2013-04-27 15:37:00,54.2,51.9,30.41,NW,321,4.0,13.0,92,0.00,,---,0.58,VWS V14.01,2013-04-27 20:37:00,
2013-04-27 15:38:00,54.2,51.9,30.41,NNW,327,4.0,13.0,92,0.00,,---,0.58,VWS V14.01,2013-04-27 20:38:00,
2013-04-27 15:39:00,54.2,51.9,30.41,NW,311,2.0,13.0,92,0.00,,---,0.58,VWS V14.01,2013-04-27 20:39:00,
2013-04-27 15:40:00,54.2,51.9,30.41,WNW,296,6.0,13.0,92,0.00,,---,0.58,VWS V14.01,2013-04-27 20:40:00,
2013-04-27 15:41:00,54.2,51.9,30.41,NW,317,4.0,5.0,92,0.00,,---,0.58,VWS V14.01,2013-04-27 20:41:00,
2013-04-27 15:42:00,54.2,51.9,30.41,WNW,288,5.0,7.0,92,0.00,,---,0.58,VWS V14.01,2013-04-27 20:42:00,
2013-04-27 15:43:00,54.2,51.9,30.41,WNW,291,8.0,13.0,92,0.00,,---,0.58,VWS V14.01,2013-04-27 20:43:00,
2013-04-27 15:44:00,54.1,51.8,30.41,NW,305,9.0,13.0,92,0.00,,---,0.58,VWS V14.01,2013-04-27 20:44:00,
2013-04-27 15:45:00,54.1,51.8,30.41,NW,313,4.0,13.0,92,0.00,,---,0.58,VWS V14.01,2013-04-27 20:45:00,
2013-04-27 15:46:00,54.1,51.8,30.41,WNW,303,6.0,13.0,92,0.00,,---,0.58,VWS V14.01,2013-04-27 20:46:00,
2013-04-27 15:47:00,53.9,51.6,30.41,NW,321,4.0,13.0,92,0.00,,---,0.58,VWS V14.01,2013-04-27 20:47:00,
2013-04-27 15:48:00,53.9,51.6,30.41,WNW,284,5.0,13.0,92,0.00,,---,0.58,VWS V14.01,2013-04-27 20:48:00,
2013-04-27 15:49:00,53.9,51.6,30.41,NW,322,9.0,13.0,92,0.00,,---,0.58,VWS V14.01,2013-04-27 20:49:00,
2013-04-27 15:50:00,53.9,51.6,30.41,NW,309,13.0,13.0,92,0.00,,---,0.58,VWS V14.01,2013-04-27 20:50:00,
2013-04-27 15:51:00,53.8,51.5,30.41,WNW,295,4.0,13.0,92,0.00,,---,0.58,VWS V14.01,2013-04-27 20:51:00,
2013-04-27 15:52:00,53.8,51.5,30.41,WNW,288,9.0,13.0,92,0.00,,---,0.58,VWS V14.01,2013-04-27 20:52:00,
2013-04-27 15:53:00,53.8,51.5,30.41,NW,305,6.0,13.0,92,0.00,,---,0.58,VWS V14.01,2013-04-27 20:53:00,
2013-04-27 15:54:00,53.6,51.3,30.41,WNW,284,6.0,13.0,92,0.00,,---,0.58,VWS V14.01,2013-04-27 20:54:00,
2013-04-27 15:55:00,53.6,51.3,30.41,WNW,286,7.0,13.0,92,0.00,,---,0.58,VWS V14.01,2013-04-27 20:55:00,
2013-04-27 15:56:00,53.6,51.3,30.41,NW,318,5.0,13.0,92,0.00,,---,0.58,VWS V14.01,2013-04-27 20:56:00,
2013-04-27 15:57:00,53.6,51.3,30.41,West,267,6.0,13.0,92,0.00,,---,0.58,VWS V14.01,2013-04-27 20:57:00,
2013-04-27 15:58:00,53.6,51.3,30.41,NW,323,9.0,13.0,92,0.00,,---,0.58,VWS V14.01,2013-04-27 20:58:00,
2013-04-27 15:59:00,53.6,51.3,30.41,WNW,296,11.0,13.0,92,0.00,,---,0.58,VWS V14.01,2013-04-27 20:59:00,
2013-04-27 16:00:00,53.6,51.3,30.41,NNW,335,6.0,13.0,92,0.00,,---,0.58,VWS V14.01,2013-04-27 21:00:00,
2013-04-27 16:01:00,53.5,51.2,30.41,NW,305,7.0,10.0,92,0.00,,---,0.58,VWS V14.01,2013-04-27 21:01:00,
2013-04-27 16:02:00,53.5,51.2,30.41,NW,304,6.0,10.0,92,0.00,,---,0.58,VWS V14.01,2013-04-27 21:02:00,
2013-04-27 16:03:00,53.5,51.2,30.41,NNW,327,3.0,10.0,92,0.00,,---,0.58,VWS V14.01,2013-04-27 21:03:00,
2013-04-27 16:04:00,53.5,51.2,30.41,NW,322,9.0,10.0,92,0.00,,---,0.58,VWS V14.01,2013-04-27 21:04:00,
2013-04-27 16:05:00,53.5,51.2,30.41,NW,313,5.0,10.0,92,0.00,,---,0.58,VWS V14.01,2013-04-27 21:05:00,
2013-04-27 16:06:00,53.5,51.2,30.41,NW,308,3.0,10.0,92,0.00,,---,0.58,VWS V14.01,2013-04-27 21:06:00,
2013-04-27 16:07:00,53.5,51.2,30.41,WNW,290,5.0,10.0,92,0.00,,---,0.58,VWS V14.01,2013-04-27 21:07:00,
2013-04-27 16:08:00,53.5,51.2,30.41,WNW,300,9.0,11.0,92,0.00,,---,0.58,VWS V14.01,2013-04-27 21:08:00,
2013-04-27 16:09:00,53.3,51.0,30.41,NW,311,5.0,11.0,92,0.00,,---,0.58,VWS V14.01,2013-04-27 21:09:00,
2013-04-27 16:10:00,53.3,51.0,30.41,WNW,287,8.0,12.0,92,0.00,,---,0.58,VWS V14.01,2013-04-27 21:10:00,
2013-04-27 16:11:00,53.3,51.0,30.41,NW,309,12.0,12.0,92,0.00,,---,0.58,VWS V14.01,2013-04-27 21:11:00,
2013-04-27 16:12:00,53.3,51.0,30.41,WNW,302,11.0,14.0,92,0.00,,---,0.58,VWS V14.01,2013-04-27 21:12:00,
2013-04-27 16:13:00,53.3,51.0,30.41,WNW,291,9.0,14.0,92,0.00,,---,0.58,VWS V14.01,2013-04-27 21:13:00,
2013-04-27 16:14:00,53.2,50.9,30.41,WNW,299,5.0,14.0,92,0.00,,---,0.58,VWS V14.01,2013-04-27 21:14:00,
2013-04-27 16:15:00,53.2,50.9,30.41,NW,317,5.0,14.0,92,0.00,,---,0.58,VWS V14.01,2013-04-27 21:15:00,
2013-04-27 16:16:00,53.2,50.9,30.41,NNW,332,4.0,14.0,92,0.00,,---,0.58,VWS V14.01,2013-04-27 21:16:00,
2013-04-27 16:17:00,53.2,50.9,30.41,NNW,331,11.0,14.0,92,0.00,,---,0.58,VWS V14.01,2013-04-27 21:17:00,
2013-04-27 16:18:00,53.1,50.8,30.41,NW,306,9.0,14.0,92,0.00,,---,0.58,VWS V14.01,2013-04-27 21:18:00,
2013-04-27 16:19:00,53.1,50.8,30.41,West,277,6.0,14.0,92,0.00,,---,0.58,VWS V14.01,2013-04-27 21:19:00,
2013-04-27 16:20:00,53.1,50.8,30.41,NNW,331,4.0,14.0,92,0.00,,---,0.58,VWS V14.01,2013-04-27 21:20:00,
2013-04-27 16:21:00,53.1,50.8,30.41,WNW,301,3.0,9.0,92,0.00,,---,0.58,VWS V14.01,2013-04-27 21:21:00,
2013-04-27 16:22:00,53.1,50.8,30.41,WNW,296,5.0,9.0,92,0.00,,---,0.58,VWS V14.01,2013-04-27 21:22:00,
2013-04-27 16:23:00,53.1,50.8,30.41,NW,306,7.0,12.0,92,0.00,,---,0.58,VWS V14.01,2013-04-27 21:23:00,
2013-04-27 16:24:00,53.1,50.8,30.41,NW,323,7.0,13.0,92,0.00,,---,0.58,VWS V14.01,2013-04-27 21:24:00,
2013-04-27 16:25:00,53.1,50.8,30.41,NW,304,10.0,13.0,92,0.00,,---,0.58,VWS V14.01,2013-04-27 21:25:00,
2013-04-27 16:26:00,52.9,50.6,30.41,NNW,328,5.0,13.0,92,0.00,,---,0.58,VWS V14.01,2013-04-27 21:26:00,
2013-04-27 16:27:00,52.9,50.6,30.41,NNW,328,5.0,13.0,92,0.00,,---,0.58,VWS V14.01,2013-04-27 21:27:00,
2013-04-27 16:28:00,52.9,50.6,30.41,NNW,328,5.0,13.0,92,0.00,,---,0.58,VWS V14.01,2013-04-27 21:28:00,
2013-04-27 16:29:00,52.9,50.6,30.41,WNW,296,6.0,13.0,92,0.00,,---,0.58,VWS V14.01,2013-04-27 21:29:00,
2013-04-27 16:30:00,52.9,50.6,30.41,WNW,296,4.0,13.0,92,0.00,,---,0.58,VWS V14.01,2013-04-27 21:30:00,
2013-04-27 16:31:00,52.9,50.6,30.41,NW,319,6.0,6.0,92,0.00,,---,0.58,VWS V14.01,2013-04-27 21:31:00,
2013-04-27 16:32:00,52.9,50.6,30.41,WNW,293,10.0,10.0,92,0.00,,---,0.58,VWS V14.01,2013-04-27 21:32:00,
2013-04-27 16:33:00,52.9,50.6,30.41,NNW,331,6.0,10.0,92,0.00,,---,0.58,VWS V14.01,2013-04-27 21:33:00,
2013-04-27 16:34:00,52.9,50.6,30.41,WNW,296,4.0,12.0,92,0.00,,---,0.58,VWS V14.01,2013-04-27 21:34:00,
2013-04-27 16:35:00,52.9,50.6,30.41,WNW,300,6.0,12.0,92,0.00,,---,0.58,VWS V14.01,2013-04-27 21:35:00,
2013-04-27 16:36:00,52.9,50.6,30.41,WNW,295,5.0,12.0,92,0.00,,---,0.58,VWS V14.01,2013-04-27 21:36:00,
2013-04-27 16:37:00,52.9,50.6,30.41,WNW,296,8.0,12.0,92,0.00,,---,0.58,VWS V14.01,2013-04-27 21:37:00,
2013-04-27 16:38:00,52.9,50.6,30.41,WNW,296,5.0,12.0,92,0.00,,---,0.58,VWS V14.01,2013-04-27 21:38:00,
2013-04-27 16:39:00,52.9,50.6,30.41,NW,320,7.0,15.0,92,0.00,,---,0.58,VWS V14.01,2013-04-27 21:39:00,
2013-04-27 16:40:00,52.9,50.6,30.41,NNW,346,4.0,15.0,92,0.00,,---,0.58,VWS V14.01,2013-04-27 21:40:00,
2013-04-27 16:41:00,52.8,50.5,30.41,NW,313,9.0,10.0,92,0.00,,---,0.58,VWS V14.01,2013-04-27 21:41:00,
2013-04-27 16:42:00,52.8,50.5,30.41,WNW,298,4.0,10.0,92,0.00,,---,0.58,VWS V14.01,2013-04-27 21:42:00,
2013-04-27 16:43:00,52.8,50.5,30.41,WNW,292,5.0,10.0,92,0.00,,---,0.58,VWS V14.01,2013-04-27 21:43:00,
2013-04-27 16:44:00,52.8,50.5,30.41,NW,317,4.0,10.0,92,0.00,,---,0.58,VWS V14.01,2013-04-27 21:44:00,
2013-04-27 16:45:00,52.8,50.5,30.41,NW,314,3.0,10.0,92,0.00,,---,0.58,VWS V14.01,2013-04-27 21:45:00,
2013-04-27 16:46:00,52.8,50.5,30.41,NNW,331,9.0,10.0,92,0.00,,---,0.58,VWS V14.01,2013-04-27 21:46:00,
2013-04-27 16:47:00,52.8,50.5,30.41,NW,317,6.0,10.0,92,0.00,,---,0.58,VWS V14.01,2013-04-27 21:47:00,
2013-04-27 16:48:00,52.8,50.5,30.41,NW,310,7.0,10.0,92,0.00,,---,0.58,VWS V14.01,2013-04-27 21:48:00,
2013-04-27 16:49:00,52.8,50.5,30.41,WNW,296,5.0,10.0,92,0.00,,---,0.58,VWS V14.01,2013-04-27 21:49:00,
2013-04-27 16:50:00,52.8,50.5,30.41,NW,319,4.0,10.0,92,0.00,,---,0.58,VWS V14.01,2013-04-27 21:50:00,
2013-04-27 16:51:00,52.8,50.5,30.41,NNW,344,8.0,10.0,92,0.00,,---,0.58,VWS V14.01,2013-04-27 21:51:00,
2013-04-27 16:52:00,52.8,50.5,30.41,WNW,287,9.0,11.0,92,0.00,,---,0.58,VWS V14.01,2013-04-27 21:52:00,
2013-04-27 16:53:00,52.8,50.5,30.41,NNW,342,5.0,11.0,92,0.00,,---,0.58,VWS V14.01,2013-04-27 21:53:00,
2013-04-27 16:54:00,52.8,50.5,30.41,NW,313,5.0,12.0,92,0.00,,---,0.58,VWS V14.01,2013-04-27 21:54:00,
2013-04-27 16:55:00,52.6,50.3,30.41,NW,317,7.0,12.0,92,0.00,,---,0.58,VWS V14.01,2013-04-27 21:55:00,
2013-04-27 16:56:00,52.6,50.3,30.41,WNW,301,3.0,12.0,92,0.00,,---,0.58,VWS V14.01,2013-04-27 21:56:00,
2013-04-27 16:57:00,52.6,50.3,30.41,NW,317,6.0,12.0,92,0.00,,---,0.58,VWS V14.01,2013-04-27 21:57:00,
2013-04-27 16:58:00,52.6,50.3,30.41,NW,317,5.0,12.0,92,0.00,,---,0.58,VWS V14.01,2013-04-27 21:58:00,
2013-04-27 16:59:00,52.6,50.3,30.41,NNW,332,9.0,12.0,92,0.00,,---,0.58,VWS V14.01,2013-04-27 21:59:00,
2013-04-27 17:00:00,52.6,50.3,30.41,NNW,339,5.0,12.0,92,0.00,,---,0.58,VWS V14.01,2013-04-27 22:00:00,
2013-04-27 17:01:00,52.6,50.3,30.41,NNW,339,5.0,10.0,92,0.00,,---,0.58,VWS V14.01,2013-04-27 22:01:00,
2013-04-27 17:02:00,52.6,50.3,30.41,NW,321,12.0,14.0,92,0.00,,---,0.58,VWS V14.01,2013-04-27 22:02:00,
2013-04-27 17:03:00,52.6,50.3,30.41,NW,304,4.0,14.0,92,0.00,,---,0.58,VWS V14.01,2013-04-27 22:03:00,
2013-04-27 17:04:00,52.6,50.3,30.41,NW,321,4.0,14.0,92,0.00,,---,0.58,VWS V14.01,2013-04-27 22:04:00,
2013-04-27 17:05:00,52.5,50.2,30.41,NW,319,5.0,14.0,92,0.00,,---,0.58,VWS V14.01,2013-04-27 22:05:00,
2013-04-27 17:06:00,52.5,50.2,30.41,WNW,300,4.0,14.0,92,0.00,,---,0.58,VWS V14.01,2013-04-27 22:06:00,
2013-04-27 17:07:00,52.6,50.3,30.41,WNW,300,0.0,14.0,92,0.00,,---,0.58,VWS V14.01,2013-04-27 22:07:00,
2013-04-27 17:08:00,52.6,50.3,30.41,WNW,300,3.0,14.0,92,0.00,,---,0.58,VWS V14.01,2013-04-27 22:08:00,
2013-04-27 17:09:00,52.6,50.3,30.41,WNW,300,2.0,14.0,92,0.00,,---,0.58,VWS V14.01,2013-04-27 22:09:00,
2013-04-27 17:10:00,52.6,50.3,30.41,NNW,327,5.0,14.0,92,0.00,,---,0.58,VWS V14.01,2013-04-27 22:10:00,
2013-04-27 17:11:00,52.6,50.6,30.41,WNW,296,4.0,8.0,93,0.00,,---,0.58,VWS V14.01,2013-04-27 22:11:00,
2013-04-27 17:12:00,52.6,50.6,30.41,NNW,346,7.0,12.0,93,0.00,,---,0.58,VWS V14.01,2013-04-27 22:12:00,
2013-04-27 17:13:00,52.6,50.3,30.41,NW,309,7.0,12.0,92,0.00,,---,0.58,VWS V14.01,2013-04-27 22:13:00,
2013-04-27 17:14:00,52.5,50.2,30.41,NNW,329,4.0,12.0,92,0.00,,---,0.58,VWS V14.01,2013-04-27 22:14:00,
2013-04-27 17:15:00,52.5,50.2,30.41,NW,319,3.0,12.0,92,0.00,,---,0.58,VWS V14.01,2013-04-27 22:15:00,
2013-04-27 17:16:00,52.5,50.2,30.41,NNW,327,5.0,12.0,92,0.00,,---,0.58,VWS V14.01,2013-04-27 22:16:00,
2013-04-27 17:17:00,52.5,50.2,30.41,NW,326,9.0,12.0,92,0.00,,---,0.58,VWS V14.01,2013-04-27 22:17:00,
2013-04-27 17:18:00,52.5,50.2,30.41,NW,308,11.0,12.0,92,0.00,,---,0.58,VWS V14.01,2013-04-27 22:18:00,
2013-04-27 17:19:00,52.5,50.2,30.41,NW,306,7.0,12.0,92,0.00,,---,0.58,VWS V14.01,2013-04-27 22:19:00,
2013-04-27 17:20:00,52.3,50.0,30.41,WNW,298,9.0,12.0,92,0.00,,---,0.58,VWS V14.01,2013-04-27 22:20:00,
2013-04-27 17:21:00,52.3,50.0,30.41,NNW,327,5.0,6.0,92,0.00,,---,0.58,VWS V14.01,2013-04-27 22:21:00,
2013-04-27 17:22:00,52.3,50.0,30.41,North,350,5.0,6.0,92,0.00,,---,0.58,VWS V14.01,2013-04-27 22:22:00,
2013-04-27 17:23:00,52.3,50.0,30.41,NNW,329,4.0,6.0,92,0.00,,---,0.58,VWS V14.01,2013-04-27 22:23:00,
2013-04-27 17:24:00,52.3,50.0,30.41,NNW,343,5.0,7.0,92,0.00,,---,0.58,VWS V14.01,2013-04-27 22:24:00,
2013-04-27 17:25:00,52.3,50.0,30.41,NNW,336,4.0,7.0,92,0.00,,---,0.58,VWS V14.01,2013-04-27 22:25:00,
2013-04-27 17:26:00,52.3,50.0,30.41,NNW,328,5.0,9.0,92,0.00,,---,0.58,VWS V14.01,2013-04-27 22:26:00,
2013-04-27 17:27:00,52.3,50.3,30.41,NW,312,6.0,9.0,93,0.00,,---,0.58,VWS V14.01,2013-04-27 22:27:00,
2013-04-27 17:28:00,52.3,50.0,30.41,NW,313,4.0,9.0,92,0.00,,---,0.58,VWS V14.01,2013-04-27 22:28:00,
2013-04-27 17:29:00,52.3,50.0,30.41,NW,313,4.0,9.0,92,0.00,,---,0.58,VWS V14.01,2013-04-27 22:29:00,
2013-04-27 17:30:00,52.3,50.3,30.41,NW,317,3.0,9.0,93,0.00,,---,0.58,VWS V14.01,2013-04-27 22:30:00,
2013-04-27 17:31:00,52.3,50.3,30.41,NW,317,4.0,5.0,93,0.00,,---,0.58,VWS V14.01,2013-04-27 22:31:00,
2013-04-27 17:32:00,52.3,50.3,30.41,NW,317,1.0,5.0,93,0.00,,---,0.58,VWS V14.01,2013-04-27 22:32:00,
2013-04-27 17:33:00,52.3,50.3,30.41,WNW,286,4.0,5.0,93,0.00,,---,0.58,VWS V14.01,2013-04-27 22:33:00,
2013-04-27 17:34:00,52.3,50.3,30.41,WNW,294,3.0,7.0,93,0.00,,---,0.58,VWS V14.01,2013-04-27 22:34:00,
2013-04-27 17:35:00,52.3,50.3,30.41,NW,305,7.0,7.0,93,0.00,,---,0.58,VWS V14.01,2013-04-27 22:35:00,
2013-04-27 17:36:00,52.3,50.3,30.41,WNW,294,4.0,9.0,93,0.00,,---,0.58,VWS V14.01,2013-04-27 22:36:00,
2013-04-27 17:37:00,52.3,50.3,30.41,NW,325,5.0,9.0,93,0.00,,---,0.58,VWS V14.01,2013-04-27 22:37:00,
2013-04-27 17:38:00,52.3,50.3,30.41,WNW,296,3.0,9.0,93,0.00,,---,0.58,VWS V14.01,2013-04-27 22:38:00,
2013-04-27 17:39:00,52.3,50.3,30.41,NW,306,5.0,9.0,93,0.00,,---,0.58,VWS V14.01,2013-04-27 22:39:00,
2013-04-27 17:40:00,52.3,50.3,30.41,West,277,5.0,9.0,93,0.00,,---,0.58,VWS V14.01,2013-04-27 22:40:00,
2013-04-27 17:41:00,52.3,50.3,30.41,WNW,303,9.0,12.0,93,0.00,,---,0.58,VWS V14.01,2013-04-27 22:41:00,
2013-04-27 17:42:00,52.3,50.3,30.41,WNW,296,4.0,12.0,93,0.00,,---,0.58,VWS V14.01,2013-04-27 22:42:00,
2013-04-27 17:43:00,52.3,50.3,30.41,West,277,7.0,12.0,93,0.00,,---,0.58,VWS V14.01,2013-04-27 22:43:00,
2013-04-27 17:44:00,52.3,50.3,30.41,WNW,302,6.0,12.0,93,0.00,,---,0.58,VWS V14.01,2013-04-27 22:44:00,
2013-04-27 17:45:00,52.3,50.3,30.41,NW,310,3.0,12.0,93,0.00,,---,0.58,VWS V14.01,2013-04-27 22:45:00,
2013-04-27 17:46:00,52.3,50.3,30.41,NW,317,2.0,12.0,93,0.00,,---,0.58,VWS V14.01,2013-04-27 22:46:00,
2013-04-27 17:47:00,52.3,50.3,30.41,NW,317,3.0,12.0,93,0.00,,---,0.58,VWS V14.01,2013-04-27 22:47:00,
2013-04-27 17:48:00,52.3,50.3,30.41,WNW,294,4.0,12.0,93,0.00,,---,0.58,VWS V14.01,2013-04-27 22:48:00,
2013-04-27 17:49:00,52.3,50.3,30.41,WNW,299,6.0,12.0,93,0.00,,---,0.58,VWS V14.01,2013-04-27 22:49:00,
2013-04-27 17:50:00,52.2,50.2,30.41,WNW,291,4.0,12.0,93,0.00,,---,0.58,VWS V14.01,2013-04-27 22:50:00,
2013-04-27 17:51:00,52.2,50.2,30.41,WNW,296,4.0,6.0,93,0.00,,---,0.58,VWS V14.01,2013-04-27 22:51:00,
2013-04-27 17:52:00,52.2,50.2,30.41,WNW,299,5.0,6.0,93,0.00,,---,0.58,VWS V14.01,2013-04-27 22:52:00,
2013-04-27 17:53:00,52.2,50.2,30.41,WNW,293,6.0,6.0,93,0.00,,---,0.58,VWS V14.01,2013-04-27 22:53:00,
2013-04-27 17:54:00,52.2,50.2,30.41,NW,304,3.0,6.0,93,0.00,,---,0.58,VWS V14.01,2013-04-27 22:54:00,
2013-04-27 17:55:00,52.2,50.2,30.41,WNW,297,4.0,6.0,93,0.00,,---,0.58,VWS V14.01,2013-04-27 22:55:00,
2013-04-27 17:56:00,52.2,50.2,30.41,WNW,284,5.0,6.0,93,0.00,,---,0.58,VWS V14.01,2013-04-27 22:56:00,
2013-04-27 17:57:00,52.2,50.2,30.41,NW,304,4.0,9.0,93,0.00,,---,0.58,VWS V14.01,2013-04-27 22:57:00,
2013-04-27 17:58:00,52.2,50.2,30.41,NW,305,9.0,10.0,93,0.00,,---,0.58,VWS V14.01,2013-04-27 22:58:00,
2013-04-27 17:59:00,52.2,50.2,30.41,NW,309,4.0,10.0,93,0.00,,---,0.58,VWS V14.01,2013-04-27 22:59:00,
2013-04-27 18:00:00,52.0,50.0,30.41,NW,306,8.0,10.0,93,0.00,,---,0.58,VWS V14.01,2013-04-27 23:00:00,
2013-04-27 18:01:00,52.0,50.0,30.41,NW,320,8.0,8.0,93,0.00,,---,0.58,VWS V14.01,2013-04-27 23:01:00,
2013-04-27 18:02:00,52.0,50.0,30.41,NW,321,6.0,11.0,93,0.00,,---,0.58,VWS V14.01,2013-04-27 23:02:00,
2013-04-27 18:03:00,52.0,50.0,30.41,NW,315,6.0,11.0,93,0.00,,---,0.58,VWS V14.01,2013-04-27 23:03:00,
2013-04-27 18:04:00,52.0,50.0,30.41,WNW,300,7.0,11.0,93,0.00,,---,0.58,VWS V14.01,2013-04-27 23:04:00,
2013-04-27 18:05:00,52.0,50.0,30.41,NW,313,3.0,11.0,93,0.00,,---,0.58,VWS V14.01,2013-04-27 23:05:00,
2013-04-27 18:06:00,52.0,50.0,30.41,NW,321,3.0,11.0,93,0.00,,---,0.58,VWS V14.01,2013-04-27 23:06:00,
2013-04-27 18:07:00,52.0,50.0,30.41,NW,309,9.0,11.0,93,0.00,,---,0.58,VWS V14.01,2013-04-27 23:07:00,
2013-04-27 18:08:00,52.0,50.0,30.41,NW,305,3.0,11.0,93,0.00,,---,0.58,VWS V14.01,2013-04-27 23:08:00,
2013-04-27 18:09:00,52.0,50.0,30.41,NW,309,6.0,11.0,93,0.00,,---,0.58,VWS V14.01,2013-04-27 23:09:00,
2013-04-27 18:10:00,52.0,50.0,30.41,WNW,289,10.0,11.0,93,0.00,,---,0.58,VWS V14.01,2013-04-27 23:10:00,
2013-04-27 18:11:00,51.9,49.9,30.41,WNW,292,11.0,12.0,93,0.00,,---,0.58,VWS V14.01,2013-04-27 23:11:00,
2013-04-27 18:12:00,51.9,49.9,30.41,NW,310,9.0,12.0,93,0.00,,---,0.58,VWS V14.01,2013-04-27 23:12:00,
2013-04-27 18:13:00,51.9,49.9,30.41,NW,315,4.0,12.0,93,0.00,,---,0.58,VWS V14.01,2013-04-27 23:13:00,
2013-04-27 18:14:00,51.9,49.9,30.41,NW,310,5.0,12.0,93,0.00,,---,0.58,VWS V14.01,2013-04-27 23:14:00,
2013-04-27 18:15:00,51.9,49.9,30.41,NNW,329,4.0,12.0,93,0.00,,---,0.58,VWS V14.01,2013-04-27 23:15:00,
2013-04-27 18:16:00,51.9,49.9,30.41,NW,326,9.0,12.0,93,0.00,,---,0.58,VWS V14.01,2013-04-27 23:16:00,
2013-04-27 18:17:00,51.9,49.9,30.41,NNW,342,10.0,12.0,93,0.00,,---,0.58,VWS V14.01,2013-04-27 23:17:00,
2013-04-27 18:18:00,51.9,49.9,30.41,NW,320,3.0,12.0,93,0.00,,---,0.58,VWS V14.01,2013-04-27 23:18:00,
2013-04-27 18:19:00,51.9,49.9,30.41,NW,323,3.0,12.0,93,0.00,,---,0.58,VWS V14.01,2013-04-27 23:19:00,
2013-04-27 18:20:00,51.9,49.9,30.41,NW,323,2.0,12.0,93,0.00,,---,0.58,VWS V14.01,2013-04-27 23:20:00,
2013-04-27 18:21:00,51.9,49.9,30.41,NNW,335,4.0,6.0,93,0.00,,---,0.58,VWS V14.01,2013-04-27 23:21:00,
2013-04-27 18:22:00,51.9,49.9,30.41,NW,319,4.0,6.0,93,0.00,,---,0.58,VWS V14.01,2013-04-27 23:22:00,
2013-04-27 18:23:00,51.9,49.9,30.41,NW,319,3.0,6.0,93,0.00,,---,0.58,VWS V14.01,2013-04-27 23:23:00,
2013-04-27 18:24:00,51.9,49.9,30.41,NW,319,3.0,6.0,93,0.00,,---,0.58,VWS V14.01,2013-04-27 23:24:00,
2013-04-27 18:25:00,51.9,49.9,30.41,NW,324,5.0,6.0,93,0.00,,---,0.58,VWS V14.01,2013-04-27 23:25:00,
2013-04-27 18:26:00,51.9,49.9,30.41,NNW,327,3.0,9.0,93,0.00,,---,0.58,VWS V14.01,2013-04-27 23:26:00,
2013-04-27 18:27:00,51.9,49.9,30.41,NNW,327,2.0,9.0,93,0.00,,---,0.58,VWS V14.01,2013-04-27 23:27:00,
2013-04-27 18:28:00,51.9,49.9,30.41,West,280,5.0,9.0,93,0.00,,---,0.58,VWS V14.01,2013-04-27 23:28:00,
2013-04-27 18:29:00,51.9,49.9,30.41,NW,318,4.0,9.0,93,0.00,,---,0.58,VWS V14.01,2013-04-27 23:29:00,
2013-04-27 18:30:00,52.0,50.0,30.41,WNW,299,5.0,9.0,93,0.00,,---,0.58,VWS V14.01,2013-04-27 23:30:00,
2013-04-27 18:31:00,52.0,50.0,30.41,WNW,295,11.0,11.0,93,0.00,,---,0.58,VWS V14.01,2013-04-27 23:31:00,
2013-04-27 18:32:00,52.0,50.0,30.41,NW,304,7.0,11.0,93,0.00,,---,0.58,VWS V14.01,2013-04-27 23:32:00,
2013-04-27 18:33:00,51.9,49.9,30.41,NW,304,6.0,11.0,93,0.00,,---,0.58,VWS V14.01,2013-04-27 23:33:00,
2013-04-27 18:34:00,51.9,49.9,30.41,WNW,303,6.0,11.0,93,0.00,,---,0.58,VWS V14.01,2013-04-27 23:34:00,
2013-04-27 18:35:00,51.9,49.9,30.41,NW,317,5.0,11.0,93,0.00,,---,0.58,VWS V14.01,2013-04-27 23:35:00,
2013-04-27 18:36:00,51.9,49.9,30.41,NW,306,4.0,11.0,93,0.00,,---,0.58,VWS V14.01,2013-04-27 23:36:00,
2013-04-27 18:37:00,51.9,49.9,30.41,NW,325,4.0,11.0,93,0.00,,---,0.58,VWS V14.01,2013-04-27 23:37:00,
2013-04-27 18:38:00,51.9,49.9,30.41,NW,318,4.0,11.0,93,0.00,,---,0.58,VWS V14.01,2013-04-27 23:38:00,
2013-04-27 18:39:00,51.9,49.9,30.41,NW,318,3.0,11.0,93,0.00,,---,0.58,VWS V14.01,2013-04-27 23:39:00,
2013-04-27 18:40:00,51.9,49.9,30.41,NW,323,5.0,11.0,93,0.00,,---,0.58,VWS V14.01,2013-04-27 23:40:00,
2013-04-27 18:41:00,51.9,49.9,30.41,NW,323,4.0,4.0,93,0.00,,---,0.58,VWS V14.01,2013-04-27 23:41:00,
2013-04-27 18:42:00,51.9,49.9,30.41,NW,323,4.0,4.0,93,0.00,,---,0.58,VWS V14.01,2013-04-27 23:42:00,
2013-04-27 18:43:00,51.9,49.9,30.41,NW,324,4.0,5.0,93,0.00,,---,0.58,VWS V14.01,2013-04-27 23:43:00,
2013-04-27 18:44:00,51.9,49.9,30.41,WNW,302,8.0,9.0,93,0.00,,---,0.58,VWS V14.01,2013-04-27 23:44:00,
2013-04-27 18:45:00,51.9,49.9,30.41,NW,323,3.0,9.0,93,0.00,,---,0.58,VWS V14.01,2013-04-27 23:45:00,
2013-04-27 18:46:00,51.9,49.9,30.41,NW,314,4.0,9.0,93,0.00,,---,0.58,VWS V14.01,2013-04-27 23:46:00,
2013-04-27 18:47:00,51.9,49.9,30.41,WNW,300,11.0,11.0,93,0.00,,---,0.58,VWS V14.01,2013-04-27 23:47:00,
2013-04-27 18:48:00,51.9,49.9,30.41,NNW,337,9.0,11.0,93,0.00,,---,0.58,VWS V14.01,2013-04-27 23:48:00,
2013-04-27 18:49:00,51.9,49.9,30.41,NW,314,4.0,11.0,93,0.00,,---,0.58,VWS V14.01,2013-04-27 23:49:00,
2013-04-27 18:50:00,51.9,49.9,30.41,NW,306,5.0,11.0,93,0.00,,---,0.58,VWS V14.01,2013-04-27 23:50:00,
2013-04-27 18:51:00,51.9,49.9,30.41,NNW,328,6.0,7.0,93,0.00,,---,0.58,VWS V14.01,2013-04-27 23:51:00,
2013-04-27 18:52:00,51.7,49.8,30.41,NNW,337,4.0,7.0,93,0.00,,---,0.58,VWS V14.01,2013-04-27 23:52:00,
2013-04-27 18:53:00,51.7,49.8,30.41,North,355,7.0,8.0,93,0.00,,---,0.58,VWS V14.01,2013-04-27 23:53:00,
2013-04-27 18:54:00,51.7,49.8,30.41,NW,321,9.0,9.0,93,0.00,,---,0.58,VWS V14.01,2013-04-27 23:54:00,
2013-04-27 18:55:00,51.7,49.8,30.41,NNW,334,6.0,9.0,93,0.00,,---,0.58,VWS V14.01,2013-04-27 23:55:00,
2013-04-27 18:56:00,51.7,49.8,30.41,NNW,331,6.0,9.0,93,0.00,,---,0.58,VWS V14.01,2013-04-27 23:56:00,
2013-04-27 18:57:00,51.7,49.8,30.41,NNW,330,4.0,9.0,93,0.00,,---,0.58,VWS V14.01,2013-04-27 23:57:00,
2013-04-27 18:58:00,51.7,49.8,30.41,NNW,329,1.0,9.0,93,0.00,,---,0.58,VWS V14.01,2013-04-27 23:58:00,
2013-04-27 18:59:00,51.7,49.8,30.41,NW,313,4.0,10.0,93,0.00,,---,0.58,VWS V14.01,2013-04-27 23:59:00,
2013-04-27 19:00:00,51.7,49.8,30.41,NW,317,3.0,10.0,93,0.00,,---,0.58,VWS V14.01,2013-04-28 00:00:00,
2013-04-27 19:01:00,51.7,49.8,30.41,NW,311,4.0,5.0,93,0.00,,---,0.58,VWS V14.01,2013-04-28 00:01:00,
2013-04-27 19:02:00,51.7,49.8,30.41,NW,317,5.0,9.0,93,0.00,,---,0.58,VWS V14.01,2013-04-28 00:02:00,
2013-04-27 19:03:00,51.7,49.8,30.41,NW,313,5.0,9.0,93,0.00,,---,0.58,VWS V14.01,2013-04-28 00:03:00,
2013-04-27 19:04:00,51.7,49.8,30.41,NW,311,5.0,9.0,93,0.00,,---,0.58,VWS V14.01,2013-04-28 00:04:00,
2013-04-27 19:05:00,51.7,49.8,30.41,NW,306,4.0,9.0,93,0.00,,---,0.58,VWS V14.01,2013-04-28 00:05:00,
2013-04-27 19:06:00,51.7,49.8,30.41,WNW,303,5.0,9.0,93,0.00,,---,0.58,VWS V14.01,2013-04-28 00:06:00,
2013-04-27 19:07:00,51.7,49.8,30.41,NNW,341,4.0,9.0,93,0.00,,---,0.58,VWS V14.01,2013-04-28 00:07:00,
2013-04-27 19:08:00,51.7,49.8,30.41,NW,305,5.0,9.0,93,0.00,,---,0.58,VWS V14.01,2013-04-28 00:08:00,
2013-04-27 19:09:00,51.7,49.8,30.41,NW,304,6.0,9.0,93,0.00,,---,0.58,VWS V14.01,2013-04-28 00:09:00,
2013-04-27 19:10:00,51.6,49.7,30.41,NW,304,7.0,9.0,93,0.00,,---,0.58,VWS V14.01,2013-04-28 00:10:00,
2013-04-27 19:11:00,51.6,49.7,30.41,NW,320,4.0,6.0,93,0.00,,---,0.58,VWS V14.01,2013-04-28 00:11:00,
2013-04-27 19:12:00,51.6,49.7,30.41,NW,311,4.0,6.0,93,0.00,,---,0.58,VWS V14.01,2013-04-28 00:12:00,
2013-04-27 19:13:00,51.6,49.7,30.41,NW,320,3.0,9.0,93,0.00,,---,0.58,VWS V14.01,2013-04-28 00:13:00,
2013-04-27 19:14:00,51.6,49.7,30.41,NW,311,5.0,9.0,93,0.00,,---,0.58,VWS V14.01,2013-04-28 00:14:00,
2013-04-27 19:15:00,51.6,49.7,30.40,NW,307,6.0,9.0,93,0.00,,---,0.58,VWS V14.01,2013-04-28 00:15:00,
2013-04-27 19:16:00,51.6,49.7,30.40,WNW,298,4.0,10.0,93,0.00,,---,0.58,VWS V14.01,2013-04-28 00:16:00,
2013-04-27 19:17:00,51.6,49.7,30.40,WNW,303,9.0,10.0,93,0.00,,---,0.58,VWS V14.01,2013-04-28 00:17:00,
2013-04-27 19:18:00,51.6,49.7,30.40,NW,311,5.0,10.0,93,0.00,,---,0.58,VWS V14.01,2013-04-28 00:18:00,
2013-04-27 19:19:00,51.6,49.7,30.40,WNW,302,8.0,10.0,93,0.00,,---,0.58,VWS V14.01,2013-04-28 00:19:00,
2013-04-27 19:20:00,51.6,49.7,30.40,NW,306,6.0,10.0,93,0.00,,---,0.58,VWS V14.01,2013-04-28 00:20:00,
2013-04-27 19:21:00,51.6,49.7,30.40,NW,313,6.0,6.0,93,0.00,,---,0.58,VWS V14.01,2013-04-28 00:21:00,
2013-04-27 19:22:00,51.6,49.7,30.40,NW,313,4.0,6.0,93,0.00,,---,0.58,VWS V14.01,2013-04-28 00:22:00,
2013-04-27 19:23:00,51.6,49.7,30.40,NW,306,5.0,7.0,93,0.00,,---,0.58,VWS V14.01,2013-04-28 00:23:00,
2013-04-27 19:24:00,51.6,49.7,30.40,NW,319,4.0,7.0,93,0.00,,---,0.58,VWS V14.01,2013-04-28 00:24:00,
2013-04-27 19:25:00,51.6,49.7,30.40,NW,317,3.0,8.0,93,0.00,,---,0.58,VWS V14.01,2013-04-28 00:25:00,
2013-04-27 19:26:00,51.6,49.7,30.40,NW,307,5.0,9.0,93,0.00,,---,0.58,VWS V14.01,2013-04-28 00:26:00,
2013-04-27 19:27:00,51.6,49.7,30.40,WNW,303,4.0,9.0,93,0.00,,---,0.58,VWS V14.01,2013-04-28 00:27:00,
2013-04-27 19:28:00,51.4,49.5,30.40,NW,315,4.0,9.0,93,0.00,,---,0.58,VWS V14.01,2013-04-28 00:28:00,
2013-04-27 19:29:00,51.4,49.5,30.40,NW,319,5.0,9.0,93,0.00,,---,0.58,VWS V14.01,2013-04-28 00:29:00,
2013-04-27 19:30:00,51.4,49.5,30.40,WNW,302,7.0,9.0,93,0.00,,---,0.58,VWS V14.01,2013-04-28 00:30:00,
2013-04-27 19:31:00,51.4,49.5,30.40,NW,307,4.0,7.0,93,0.00,,---,0.58,VWS V14.01,2013-04-28 00:31:00,
2013-04-27 19:32:00,51.4,49.5,30.40,NW,304,4.0,7.0,93,0.00,,---,0.58,VWS V14.01,2013-04-28 00:32:00,
2013-04-27 19:33:00,51.4,49.5,30.40,WNW,291,5.0,7.0,93,0.00,,---,0.58,VWS V14.01,2013-04-28 00:33:00,
2013-04-27 19:34:00,51.4,49.5,30.40,NW,326,4.0,7.0,93,0.00,,---,0.58,VWS V14.01,2013-04-28 00:34:00,
2013-04-27 19:35:00,51.4,49.5,30.40,NW,310,5.0,7.0,93,0.00,,---,0.58,VWS V14.01,2013-04-28 00:35:00,
2013-04-27 19:36:00,51.4,49.5,30.40,NW,324,6.0,7.0,93,0.00,,---,0.58,VWS V14.01,2013-04-28 00:36:00,
2013-04-27 19:37:00,51.4,49.5,30.40,NNW,332,5.0,7.0,93,0.00,,---,0.58,VWS V14.01,2013-04-28 00:37:00,
2013-04-27 19:38:00,51.4,49.5,30.40,NW,310,6.0,7.0,93,0.00,,---,0.58,VWS V14.01,2013-04-28 00:38:00,
2013-04-27 19:39:00,51.4,49.5,30.40,NNW,331,4.0,7.0,93,0.00,,---,0.58,VWS V14.01,2013-04-28 00:39:00,
2013-04-27 19:40:00,51.4,49.5,30.40,NW,311,3.0,7.0,93,0.00,,---,0.58,VWS V14.01,2013-04-28 00:40:00,
2013-04-27 19:41:00,51.4,49.5,30.40,NW,321,3.0,5.0,93,0.00,,---,0.58,VWS V14.01,2013-04-28 00:41:00,
2013-04-27 19:42:00,51.4,49.5,30.40,NW,321,2.0,5.0,93,0.00,,---,0.58,VWS V14.01,2013-04-28 00:42:00,
2013-04-27 19:43:00,51.4,49.5,30.40,NW,313,6.0,6.0,93,0.00,,---,0.58,VWS V14.01,2013-04-28 00:43:00,
2013-04-27 19:44:00,51.4,49.5,30.40,NW,304,4.0,6.0,93,0.00,,---,0.58,VWS V14.01,2013-04-28 00:44:00,
2013-04-27 19:45:00,51.4,49.5,30.40,NW,314,4.0,6.0,93,0.00,,---,0.58,VWS V14.01,2013-04-28 00:45:00,
2013-04-27 19:46:00,51.4,49.5,30.40,NW,311,4.0,7.0,93,0.00,,---,0.58,VWS V14.01,2013-04-28 00:46:00,
2013-04-27 19:47:00,51.4,49.5,30.40,NW,311,1.0,7.0,93,0.00,,---,0.58,VWS V14.01,2013-04-28 00:47:00,
2013-04-27 19:48:00,51.4,49.5,30.40,NW,311,3.0,7.0,93,0.00,,---,0.58,VWS V14.01,2013-04-28 00:48:00,
2013-04-27 19:49:00,51.4,49.5,30.40,NNW,342,5.0,7.0,93,0.00,,---,0.58,VWS V14.01,2013-04-28 00:49:00,
2013-04-27 19:50:00,51.4,49.5,30.40,NW,319,3.0,7.0,93,0.00,,---,0.58,VWS V14.01,2013-04-28 00:50:00,
2013-04-27 19:51:00,51.4,49.5,30.40,NW,315,5.0,5.0,93,0.00,,---,0.58,VWS V14.01,2013-04-28 00:51:00,
2013-04-27 19:52:00,51.4,49.5,30.40,WNW,302,3.0,6.0,93,0.00,,---,0.58,VWS V14.01,2013-04-28 00:52:00,
2013-04-27 19:53:00,51.4,49.5,30.40,NW,313,3.0,7.0,93,0.00,,---,0.58,VWS V14.01,2013-04-28 00:53:00,
2013-04-27 19:54:00,51.4,49.5,30.40,NNW,336,6.0,7.0,93,0.00,,---,0.58,VWS V14.01,2013-04-28 00:54:00,
2013-04-27 19:55:00,51.4,49.5,30.40,NW,323,5.0,7.0,93,0.00,,---,0.58,VWS V14.01,2013-04-28 00:55:00,
2013-04-27 19:56:00,51.4,49.5,30.40,NW,315,6.0,8.0,93,0.00,,---,0.58,VWS V14.01,2013-04-28 00:56:00,
2013-04-27 19:57:00,51.4,49.5,30.40,NW,324,3.0,8.0,93,0.00,,---,0.58,VWS V14.01,2013-04-28 00:57:00,
2013-04-27 19:58:00,51.4,49.5,30.40,NW,324,5.0,8.0,93,0.00,,---,0.58,VWS V14.01,2013-04-28 00:58:00,
2013-04-27 19:59:00,51.4,49.5,30.40,NW,320,3.0,8.0,93,0.00,,---,0.58,VWS V14.01,2013-04-28 00:59:00,
2013-04-27 20:00:00,51.4,49.5,30.40,NW,319,5.0,8.0,93,0.00,,---,0.58,VWS V14.01,2013-04-28 01:00:00,
2013-04-27 20:01:00,51.4,49.5,30.40,NW,323,3.0,5.0,93,0.00,,---,0.58,VWS V14.01,2013-04-28 01:01:00,
2013-04-27 20:02:00,51.4,49.5,30.40,NW,323,5.0,5.0,93,0.00,,---,0.58,VWS V14.01,2013-04-28 01:02:00,
2013-04-27 20:03:00,51.3,49.3,30.40,NW,323,4.0,5.0,93,0.00,,---,0.58,VWS V14.01,2013-04-28 01:03:00,
2013-04-27 20:04:00,51.3,49.3,30.40,NW,323,1.0,5.0,93,0.00,,---,0.58,VWS V14.01,2013-04-28 01:04:00,
2013-04-27 20:05:00,51.3,49.3,30.40,NW,323,3.0,5.0,93,0.00,,---,0.58,VWS V14.01,2013-04-28 01:05:00,
2013-04-27 20:06:00,51.3,49.3,30.40,NW,323,1.0,5.0,93,0.00,,---,0.58,VWS V14.01,2013-04-28 01:06:00,
2013-04-27 20:07:00,51.3,49.3,30.40,NW,325,4.0,5.0,93,0.00,,---,0.58,VWS V14.01,2013-04-28 01:07:00,
2013-04-27 20:08:00,51.3,49.3,30.40,NNW,327,3.0,5.0,93,0.00,,---,0.58,VWS V14.01,2013-04-28 01:08:00,
2013-04-27 20:09:00,51.3,49.3,30.40,NW,306,4.0,5.0,93,0.00,,---,0.58,VWS V14.01,2013-04-28 01:09:00,
2013-04-27 20:10:00,51.3,49.3,30.40,NW,306,4.0,5.0,93,0.00,,---,0.58,VWS V14.01,2013-04-28 01:10:00,
2013-04-27 20:11:00,51.3,49.3,30.40,NW,306,4.0,4.0,93,0.00,,---,0.58,VWS V14.01,2013-04-28 01:11:00,
2013-04-27 20:12:00,51.3,49.3,30.40,NW,307,7.0,7.0,93,0.00,,---,0.58,VWS V14.01,2013-04-28 01:12:00,
2013-04-27 20:13:00,51.3,49.3,30.40,NW,321,3.0,7.0,93,0.00,,---,0.58,VWS V14.01,2013-04-28 01:13:00,
2013-04-27 20:14:00,51.3,49.3,30.40,NW,321,3.0,7.0,93,0.00,,---,0.58,VWS V14.01,2013-04-28 01:14:00,
2013-04-27 20:15:00,51.3,49.3,30.40,NNW,339,2.0,7.0,93,0.00,,---,0.58,VWS V14.01,2013-04-28 01:15:00,
2013-04-27 20:16:00,51.3,49.3,30.40,NNW,341,6.0,7.0,93,0.00,,---,0.58,VWS V14.01,2013-04-28 01:16:00,
2013-04-27 20:17:00,51.3,49.3,30.40,NW,321,2.0,7.0,93,0.00,,---,0.58,VWS V14.01,2013-04-28 01:17:00,
2013-04-27 20:18:00,51.3,49.3,30.40,NW,321,0.0,7.0,93,0.00,,---,0.58,VWS V14.01,2013-04-28 01:18:00,
2013-04-27 20:19:00,51.3,49.3,30.40,NW,320,5.0,7.0,93,0.00,,---,0.58,VWS V14.01,2013-04-28 01:19:00,
2013-04-27 20:20:00,51.3,49.3,30.40,NW,320,3.0,7.0,93,0.00,,---,0.58,VWS V14.01,2013-04-28 01:20:00,
2013-04-27 20:21:00,51.3,49.3,30.40,NW,320,3.0,3.0,93,0.00,,---,0.58,VWS V14.01,2013-04-28 01:21:00,
2013-04-27 20:22:00,51.3,49.3,30.40,NW,320,2.0,3.0,93,0.00,,---,0.58,VWS V14.01,2013-04-28 01:22:00,
2013-04-27 20:23:00,51.3,49.3,30.40,NW,320,3.0,3.0,93,0.00,,---,0.58,VWS V14.01,2013-04-28 01:23:00,
2013-04-27 20:24:00,51.3,49.3,30.40,NW,320,2.0,3.0,93,0.00,,---,0.58,VWS V14.01,2013-04-28 01:24:00,
2013-04-27 20:25:00,51.3,49.3,30.40,NW,320,1.0,3.0,93,0.00,,---,0.58,VWS V14.01,2013-04-28 01:25:00,
2013-04-27 20:26:00,51.3,49.3,30.40,NW,320,0.0,3.0,93,0.00,,---,0.58,VWS V14.01,2013-04-28 01:26:00,
2013-04-27 20:27:00,51.3,49.3,30.40,NW,320,2.0,3.0,93,0.00,,---,0.58,VWS V14.01,2013-04-28 01:27:00,
2013-04-27 20:28:00,51.3,49.3,30.40,NW,320,3.0,3.0,93,0.00,,---,0.58,VWS V14.01,2013-04-28 01:28:00,
2013-04-27 20:29:00,51.3,49.3,30.40,NW,320,2.0,4.0,93,0.00,,---,0.58,VWS V14.01,2013-04-28 01:29:00,
2013-04-27 20:30:00,51.3,49.3,30.40,NW,320,1.0,4.0,93,0.00,,---,0.58,VWS V14.01,2013-04-28 01:30:00,
2013-04-27 20:31:00,51.3,49.3,30.40,NW,320,1.0,4.0,93,0.00,,---,0.58,VWS V14.01,2013-04-28 01:31:00,
2013-04-27 20:32:00,51.3,49.3,30.40,NW,320,0.0,4.0,93,0.00,,---,0.58,VWS V14.01,2013-04-28 01:32:00,
2013-04-27 20:33:00,51.3,49.3,30.40,NW,320,0.0,4.0,93,0.00,,---,0.58,VWS V14.01,2013-04-28 01:33:00,
2013-04-27 20:34:00,51.3,49.3,30.40,NW,320,1.0,4.0,93,0.00,,---,0.58,VWS V14.01,2013-04-28 01:34:00,
2013-04-27 20:35:00,51.3,49.3,30.40,NW,320,1.0,4.0,93,0.00,,---,0.58,VWS V14.01,2013-04-28 01:35:00,
2013-04-27 20:36:00,51.3,49.3,30.40,NW,320,1.0,4.0,93,0.00,,---,0.58,VWS V14.01,2013-04-28 01:36:00,
2013-04-27 20:37:00,51.3,49.3,30.40,NW,320,4.0,4.0,93,0.00,,---,0.58,VWS V14.01,2013-04-28 01:37:00,
2013-04-27 20:38:00,51.3,49.3,30.40,NW,307,5.0,5.0,93,0.00,,---,0.58,VWS V14.01,2013-04-28 01:38:00,
2013-04-27 20:39:00,51.3,49.3,30.40,NW,317,5.0,5.0,93,0.00,,---,0.58,VWS V14.01,2013-04-28 01:39:00,
2013-04-27 20:40:00,51.3,49.3,30.40,North,360,4.0,5.0,93,0.00,,---,0.58,VWS V14.01,2013-04-28 01:40:00,
2013-04-27 20:41:00,51.3,49.3,30.40,NNW,348,5.0,6.0,93,0.00,,---,0.58,VWS V14.01,2013-04-28 01:41:00,
2013-04-27 20:42:00,51.3,49.3,30.40,NW,325,3.0,6.0,93,0.00,,---,0.58,VWS V14.01,2013-04-28 01:42:00,
2013-04-27 20:43:00,51.3,49.3,30.40,NNW,340,2.0,6.0,93,0.00,,---,0.58,VWS V14.01,2013-04-28 01:43:00,
2013-04-27 20:44:00,51.3,49.3,30.40,NNW,340,3.0,6.0,93,0.00,,---,0.58,VWS V14.01,2013-04-28 01:44:00,
2013-04-27 20:45:00,51.3,49.3,30.41,NW,315,5.0,6.0,93,0.00,,---,0.58,VWS V14.01,2013-04-28 01:45:00,
2013-04-27 20:46:00,51.3,49.3,30.41,NW,312,3.0,6.0,93,0.00,,---,0.58,VWS V14.01,2013-04-28 01:46:00,
2013-04-27 20:47:00,51.3,49.3,30.41,NW,312,0.0,6.0,93,0.00,,---,0.58,VWS V14.01,2013-04-28 01:47:00,
2013-04-27 20:48:00,51.3,49.3,30.41,NW,312,1.0,6.0,93,0.00,,---,0.58,VWS V14.01,2013-04-28 01:48:00,
2013-04-27 20:49:00,51.3,49.3,30.41,NW,312,4.0,6.0,93,0.00,,---,0.58,VWS V14.01,2013-04-28 01:49:00,
2013-04-27 20:50:00,51.3,49.3,30.41,NW,313,4.0,6.0,93,0.00,,---,0.58,VWS V14.01,2013-04-28 01:50:00,
2013-04-27 20:51:00,51.3,49.3,30.41,NW,313,2.0,4.0,93,0.00,,---,0.58,VWS V14.01,2013-04-28 01:51:00,
2013-04-27 20:52:00,51.3,49.3,30.41,NNW,332,3.0,7.0,93,0.00,,---,0.58,VWS V14.01,2013-04-28 01:52:00,
2013-04-27 20:53:00,51.3,49.3,30.41,NNW,348,1.0,7.0,93,0.00,,---,0.58,VWS V14.01,2013-04-28 01:53:00,
2013-04-27 20:54:00,51.3,49.3,30.41,NNW,348,2.0,7.0,93,0.00,,---,0.58,VWS V14.01,2013-04-28 01:54:00,
2013-04-27 20:55:00,51.3,49.3,30.41,NW,316,3.0,7.0,93,0.00,,---,0.58,VWS V14.01,2013-04-28 01:55:00,
2013-04-27 20:56:00,51.3,49.3,30.41,NW,319,4.0,7.0,93,0.00,,---,0.58,VWS V14.01,2013-04-28 01:56:00,
2013-04-27 20:57:00,51.3,49.3,30.41,NNW,331,5.0,7.0,93,0.00,,---,0.58,VWS V14.01,2013-04-28 01:57:00,
2013-04-27 20:58:00,51.3,49.3,30.41,NNW,328,6.0,7.0,93,0.00,,---,0.58,VWS V14.01,2013-04-28 01:58:00,
2013-04-27 20:59:00,51.3,49.3,30.41,NNW,337,4.0,7.0,93,0.00,,---,0.58,VWS V14.01,2013-04-28 01:59:00,
2013-04-27 21:00:00,51.3,49.3,30.41,NNW,341,5.0,7.0,93,0.00,,---,0.58,VWS V14.01,2013-04-28 02:00:00,
2013-04-27 21:01:00,51.3,49.3,30.41,NNW,341,3.0,5.0,93,0.00,,---,0.58,VWS V14.01,2013-04-28 02:01:00,
2013-04-27 21:02:00,51.3,49.3,30.41,NNW,341,4.0,5.0,93,0.00,,---,0.58,VWS V14.01,2013-04-28 02:02:00,
2013-04-27 21:03:00,51.3,49.3,30.41,NNW,341,2.0,5.0,93,0.00,,---,0.58,VWS V14.01,2013-04-28 02:03:00,
2013-04-27 21:04:00,51.3,49.3,30.41,NNW,341,5.0,5.0,93,0.00,,---,0.58,VWS V14.01,2013-04-28 02:04:00,
2013-04-27 21:05:00,51.3,49.3,30.41,NW,323,4.0,5.0,93,0.00,,---,0.58,VWS V14.01,2013-04-28 02:05:00,
2013-04-27 21:06:00,51.3,49.3,30.41,NW,326,5.0,5.0,93,0.00,,---,0.58,VWS V14.01,2013-04-28 02:06:00,
2013-04-27 21:07:00,51.3,49.3,30.41,NW,326,4.0,5.0,93,0.00,,---,0.58,VWS V14.01,2013-04-28 02:07:00,
2013-04-27 21:08:00,51.3,49.3,30.41,NW,323,4.0,5.0,93,0.00,,---,0.58,VWS V14.01,2013-04-28 02:08:00,
2013-04-27 21:09:00,51.3,49.3,30.41,NW,323,3.0,5.0,93,0.00,,---,0.58,VWS V14.01,2013-04-28 02:09:00,
2013-04-27 21:10:00,51.3,49.3,30.41,NW,324,4.0,5.0,93,0.00,,---,0.58,VWS V14.01,2013-04-28 02:10:00,
2013-04-27 21:11:00,51.3,49.3,30.41,NNW,334,6.0,7.0,93,0.00,,---,0.58,VWS V14.01,2013-04-28 02:11:00,
2013-04-27 21:12:00,51.3,49.3,30.41,NNW,344,3.0,7.0,93,0.00,,---,0.58,VWS V14.01,2013-04-28 02:12:00,
2013-04-27 21:13:00,51.3,49.3,30.41,NNW,347,3.0,7.0,93,0.00,,---,0.58,VWS V14.01,2013-04-28 02:13:00,
2013-04-27 21:14:00,51.3,49.3,30.41,NNW,347,3.0,7.0,93,0.00,,---,0.58,VWS V14.01,2013-04-28 02:14:00,
2013-04-27 21:15:00,51.3,49.3,30.41,NNW,347,4.0,7.0,93,0.00,,---,0.58,VWS V14.01,2013-04-28 02:15:00,
2013-04-27 21:16:00,51.3,49.3,30.41,NNW,347,2.0,7.0,93,0.00,,---,0.58,VWS V14.01,2013-04-28 02:16:00,
2013-04-27 21:17:00,51.3,49.3,30.41,NNW,347,0.0,7.0,93,0.00,,---,0.58,VWS V14.01,2013-04-28 02:17:00,
2013-04-27 21:18:00,51.3,49.3,30.41,NNW,347,0.0,7.0,93,0.00,,---,0.58,VWS V14.01,2013-04-28 02:18:00,
2013-04-27 21:19:00,51.3,49.3,30.41,NNW,347,2.0,7.0,93,0.00,,---,0.58,VWS V14.01,2013-04-28 02:19:00,
2013-04-27 21:20:00,51.3,49.3,30.41,NW,319,4.0,7.0,93,0.00,,---,0.58,VWS V14.01,2013-04-28 02:20:00,
2013-04-27 21:21:00,51.3,49.3,30.41,NW,318,1.0,5.0,93,0.00,,---,0.58,VWS V14.01,2013-04-28 02:21:00,
2013-04-27 21:22:00,51.3,49.3,30.41,NW,318,1.0,5.0,93,0.00,,---,0.58,VWS V14.01,2013-04-28 02:22:00,
2013-04-27 21:23:00,51.3,49.3,30.41,NW,318,2.0,5.0,93,0.00,,---,0.58,VWS V14.01,2013-04-28 02:23:00,
2013-04-27 21:24:00,51.3,49.3,30.41,NW,318,0.0,5.0,93,0.00,,---,0.58,VWS V14.01,2013-04-28 02:24:00,
2013-04-27 21:25:00,51.3,49.3,30.41,NW,318,0.0,5.0,93,0.00,,---,0.58,VWS V14.01,2013-04-28 02:25:00,
2013-04-27 21:26:00,51.3,49.3,30.41,NW,318,3.0,5.0,93,0.00,,---,0.58,VWS V14.01,2013-04-28 02:26:00,
2013-04-27 21:27:00,51.3,49.3,30.41,NW,319,2.0,5.0,93,0.00,,---,0.58,VWS V14.01,2013-04-28 02:27:00,
2013-04-27 21:28:00,51.3,49.3,30.41,NW,318,4.0,5.0,93,0.00,,---,0.58,VWS V14.01,2013-04-28 02:28:00,
2013-04-27 21:29:00,51.3,49.3,30.41,NW,318,3.0,5.0,93,0.00,,---,0.58,VWS V14.01,2013-04-28 02:29:00,
2013-04-27 21:30:00,51.3,49.3,30.42,NW,318,0.0,5.0,93,0.00,,---,0.58,VWS V14.01,2013-04-28 02:30:00,
2013-04-27 21:31:00,51.3,49.3,30.42,NW,318,2.0,2.0,93,0.00,,---,0.58,VWS V14.01,2013-04-28 02:31:00,
2013-04-27 21:32:00,51.3,49.3,30.42,NW,318,2.0,2.0,93,0.00,,---,0.58,VWS V14.01,2013-04-28 02:32:00,
2013-04-27 21:33:00,51.3,49.3,30.42,NW,318,1.0,2.0,93,0.00,,---,0.58,VWS V14.01,2013-04-28 02:33:00,
2013-04-27 21:34:00,51.3,49.3,30.42,NW,318,0.0,2.0,93,0.00,,---,0.58,VWS V14.01,2013-04-28 02:34:00,
2013-04-27 21:35:00,51.3,49.3,30.42,NW,318,2.0,3.0,93,0.00,,---,0.58,VWS V14.01,2013-04-28 02:35:00,
2013-04-27 21:36:00,51.3,49.3,30.42,North,355,5.0,5.0,93,0.00,,---,0.58,VWS V14.01,2013-04-28 02:36:00,
2013-04-27 21:37:00,51.3,49.3,30.42,NNW,329,5.0,5.0,93,0.00,,---,0.58,VWS V14.01,2013-04-28 02:37:00,
2013-04-27 21:38:00,51.3,49.3,30.42,NNW,332,3.0,5.0,93,0.00,,---,0.58,VWS V14.01,2013-04-28 02:38:00,
2013-04-27 21:39:00,51.3,49.3,30.42,NNW,333,6.0,7.0,93,0.00,,---,0.58,VWS V14.01,2013-04-28 02:39:00,
2013-04-27 21:40:00,51.3,49.3,30.42,NNW,335,2.0,7.0,93,0.00,,---,0.58,VWS V14.01,2013-04-28 02:40:00,
2013-04-27 21:41:00,51.3,49.3,30.42,NNW,336,2.0,4.0,93,0.00,,---,0.58,VWS V14.01,2013-04-28 02:41:00,
2013-04-27 21:42:00,51.1,49.2,30.42,NNW,336,2.0,4.0,93,0.00,,---,0.58,VWS V14.01,2013-04-28 02:42:00,
2013-04-27 21:43:00,51.1,49.2,30.42,NNW,336,2.0,4.0,93,0.00,,---,0.58,VWS V14.01,2013-04-28 02:43:00,
2013-04-27 21:44:00,51.1,49.2,30.42,NNW,336,2.0,4.0,93,0.00,,---,0.58,VWS V14.01,2013-04-28 02:44:00,
2013-04-27 21:45:00,51.1,49.2,30.41,NNW,336,2.0,4.0,93,0.00,,---,0.58,VWS V14.01,2013-04-28 02:45:00,
2013-04-27 21:46:00,51.1,49.2,30.41,NNW,336,2.0,4.0,93,0.00,,---,0.58,VWS V14.01,2013-04-28 02:46:00,
2013-04-27 21:47:00,51.1,49.2,30.41,NNW,336,3.0,4.0,93,0.00,,---,0.58,VWS V14.01,2013-04-28 02:47:00,
2013-04-27 21:48:00,51.1,49.2,30.41,North,355,1.0,5.0,93,0.00,,---,0.58,VWS V14.01,2013-04-28 02:48:00,
2013-04-27 21:49:00,51.1,49.2,30.41,North,355,2.0,5.0,93,0.00,,---,0.58,VWS V14.01,2013-04-28 02:49:00,
2013-04-27 21:50:00,51.1,49.2,30.41,NNE,15,4.0,5.0,93,0.00,,---,0.58,VWS V14.01,2013-04-28 02:50:00,
2013-04-27 21:51:00,51.1,49.2,30.41,NNW,343,3.0,6.0,93,0.00,,---,0.58,VWS V14.01,2013-04-28 02:51:00,
2013-04-27 21:52:00,51.1,49.2,30.41,NNW,343,3.0,6.0,93,0.00,,---,0.58,VWS V14.01,2013-04-28 02:52:00,
2013-04-27 21:53:00,51.1,49.2,30.41,NNW,343,3.0,6.0,93,0.00,,---,0.58,VWS V14.01,2013-04-28 02:53:00,
2013-04-27 21:54:00,51.1,49.2,30.41,North,355,3.0,6.0,93,0.00,,---,0.58,VWS V14.01,2013-04-28 02:54:00,
2013-04-27 21:55:00,51.1,49.2,30.41,North,355,3.0,6.0,93,0.00,,---,0.58,VWS V14.01,2013-04-28 02:55:00,
2013-04-27 21:56:00,51.1,49.2,30.41,North,355,3.0,6.0,93,0.00,,---,0.58,VWS V14.01,2013-04-28 02:56:00,
2013-04-27 21:57:00,51.1,49.2,30.41,North,355,1.0,6.0,93,0.00,,---,0.58,VWS V14.01,2013-04-28 02:57:00,
2013-04-27 21:58:00,51.1,49.2,30.41,North,355,1.0,6.0,93,0.00,,---,0.58,VWS V14.01,2013-04-28 02:58:00,
2013-04-27 21:59:00,51.1,49.2,30.41,North,355,2.0,6.0,93,0.00,,---,0.58,VWS V14.01,2013-04-28 02:59:00,
2013-04-27 22:00:00,51.1,49.2,30.41,North,355,0.0,6.0,93,0.00,,---,0.58,VWS V14.01,2013-04-28 03:00:00,
2013-04-27 22:01:00,51.1,49.2,30.41,North,355,0.0,0.0,93,0.00,,---,0.58,VWS V14.01,2013-04-28 03:01:00,
2013-04-27 22:02:00,51.1,49.2,30.41,North,355,4.0,4.0,93,0.00,,---,0.58,VWS V14.01,2013-04-28 03:02:00,
2013-04-27 22:03:00,51.1,49.2,30.41,North,355,2.0,4.0,93,0.00,,---,0.58,VWS V14.01,2013-04-28 03:03:00,
2013-04-27 22:04:00,51.1,49.2,30.41,North,355,1.0,4.0,93,0.00,,---,0.58,VWS V14.01,2013-04-28 03:04:00,
2013-04-27 22:05:00,51.1,49.2,30.41,North,355,3.0,4.0,93,0.00,,---,0.58,VWS V14.01,2013-04-28 03:05:00,
2013-04-27 22:06:00,51.1,49.2,30.41,North,355,4.0,5.0,93,0.00,,---,0.58,VWS V14.01,2013-04-28 03:06:00,
2013-04-27 22:07:00,51.1,49.2,30.41,North,355,2.0,5.0,93,0.00,,---,0.58,VWS V14.01,2013-04-28 03:07:00,
2013-04-27 22:08:00,51.1,49.2,30.41,North,355,3.0,5.0,93,0.00,,---,0.58,VWS V14.01,2013-04-28 03:08:00,
2013-04-27 22:09:00,51.1,49.2,30.41,NW,323,3.0,6.0,93,0.00,,---,0.58,VWS V14.01,2013-04-28 03:09:00,
2013-04-27 22:10:00,51.1,49.2,30.41,NW,323,2.0,6.0,93,0.00,,---,0.58,VWS V14.01,2013-04-28 03:10:00,
2013-04-27 22:11:00,51.1,49.2,30.41,NW,323,3.0,4.0,93,0.00,,---,0.58,VWS V14.01,2013-04-28 03:11:00,
2013-04-27 22:12:00,51.1,49.2,30.41,NW,323,5.0,5.0,93,0.00,,---,0.58,VWS V14.01,2013-04-28 03:12:00,
2013-04-27 22:13:00,51.1,49.2,30.41,NW,323,3.0,5.0,93,0.00,,---,0.58,VWS V14.01,2013-04-28 03:13:00,
2013-04-27 22:14:00,51.1,49.2,30.41,NW,323,1.0,5.0,93,0.00,,---,0.58,VWS V14.01,2013-04-28 03:14:00,
2013-04-27 22:15:00,51.1,49.2,30.40,NW,323,2.0,5.0,93,0.00,,---,0.58,VWS V14.01,2013-04-28 03:15:00,
2013-04-27 22:16:00,51.1,49.2,30.40,NW,323,1.0,5.0,93,0.00,,---,0.58,VWS V14.01,2013-04-28 03:16:00,
2013-04-27 22:17:00,51.1,49.2,30.40,NW,323,0.0,5.0,93,0.00,,---,0.58,VWS V14.01,2013-04-28 03:17:00,
2013-04-27 22:18:00,51.1,49.2,30.40,NW,323,2.0,5.0,93,0.00,,---,0.58,VWS V14.01,2013-04-28 03:18:00,
2013-04-27 22:19:00,51.1,49.2,30.40,NW,323,2.0,5.0,93,0.00,,---,0.58,VWS V14.01,2013-04-28 03:19:00,
2013-04-27 22:20:00,51.1,49.2,30.40,NW,323,2.0,5.0,93,0.00,,---,0.58,VWS V14.01,2013-04-28 03:20:00,
2013-04-27 22:21:00,51.1,49.2,30.40,NW,323,1.0,3.0,93,0.00,,---,0.58,VWS V14.01,2013-04-28 03:21:00,
2013-04-27 22:22:00,51.1,49.2,30.40,NW,323,2.0,3.0,93,0.00,,---,0.58,VWS V14.01,2013-04-28 03:22:00,
2013-04-27 22:23:00,51.1,49.2,30.40,NW,323,3.0,5.0,93,0.00,,---,0.58,VWS V14.01,2013-04-28 03:23:00,
2013-04-27 22:24:00,51.1,49.2,30.40,NW,323,3.0,5.0,93,0.00,,---,0.58,VWS V14.01,2013-04-28 03:24:00,
2013-04-27 22:25:00,51.1,49.2,30.40,NW,323,2.0,5.0,93,0.00,,---,0.58,VWS V14.01,2013-04-28 03:25:00,
2013-04-27 22:26:00,51.1,49.2,30.40,NW,323,2.0,5.0,93,0.00,,---,0.58,VWS V14.01,2013-04-28 03:26:00,
2013-04-27 22:27:00,51.1,49.2,30.40,NW,323,0.0,5.0,93,0.00,,---,0.58,VWS V14.01,2013-04-28 03:27:00,
2013-04-27 22:28:00,51.1,49.2,30.40,NW,323,1.0,5.0,93,0.00,,---,0.58,VWS V14.01,2013-04-28 03:28:00,
2013-04-27 22:29:00,51.1,49.2,30.40,NW,323,0.0,5.0,93,0.00,,---,0.58,VWS V14.01,2013-04-28 03:29:00,
2013-04-27 22:30:00,51.1,49.2,30.40,NW,323,1.0,5.0,93,0.00,,---,0.58,VWS V14.01,2013-04-28 03:30:00,
2013-04-27 22:31:00,51.1,49.2,30.40,NW,323,2.0,4.0,93,0.00,,---,0.58,VWS V14.01,2013-04-28 03:31:00,
2013-04-27 22:32:00,51.1,49.2,30.40,NW,323,3.0,4.0,93,0.00,,---,0.58,VWS V14.01,2013-04-28 03:32:00,
2013-04-27 22:33:00,51.1,49.2,30.40,North,360,4.0,4.0,93,0.00,,---,0.58,VWS V14.01,2013-04-28 03:33:00,
2013-04-27 22:34:00,51.1,49.2,30.40,NNE,14,3.0,5.0,93,0.00,,---,0.58,VWS V14.01,2013-04-28 03:34:00,
2013-04-27 22:35:00,51.1,49.2,30.40,NNE,14,1.0,5.0,93,0.00,,---,0.58,VWS V14.01,2013-04-28 03:35:00,
2013-04-27 22:36:00,51.1,49.2,30.40,NNE,14,0.0,5.0,93,0.00,,---,0.58,VWS V14.01,2013-04-28 03:36:00,
2013-04-27 22:37:00,51.0,49.0,30.40,NNE,14,0.0,5.0,93,0.00,,---,0.58,VWS V14.01,2013-04-28 03:37:00,
2013-04-27 22:38:00,51.0,49.0,30.40,NNE,14,0.0,5.0,93,0.00,,---,0.58,VWS V14.01,2013-04-28 03:38:00,
2013-04-27 22:39:00,51.0,49.0,30.40,NNE,14,2.0,5.0,93,0.00,,---,0.58,VWS V14.01,2013-04-28 03:39:00,
2013-04-27 22:40:00,51.0,49.0,30.40,NNE,14,2.0,5.0,93,0.00,,---,0.58,VWS V14.01,2013-04-28 03:40:00,
2013-04-27 22:41:00,51.0,49.0,30.40,NNE,14,0.0,3.0,93,0.00,,---,0.58,VWS V14.01,2013-04-28 03:41:00,
2013-04-27 22:42:00,51.0,49.0,30.40,NNE,14,3.0,3.0,93,0.00,,---,0.58,VWS V14.01,2013-04-28 03:42:00,
2013-04-27 22:43:00,51.0,49.0,30.40,NNE,14,2.0,4.0,93,0.00,,---,0.58,VWS V14.01,2013-04-28 03:43:00,
2013-04-27 22:44:00,51.0,49.0,30.40,NNE,14,3.0,4.0,93,0.00,,---,0.58,VWS V14.01,2013-04-28 03:44:00,
2013-04-27 22:45:00,51.0,49.0,30.40,NNE,14,2.0,4.0,93,0.00,,---,0.58,VWS V14.01,2013-04-28 03:45:00,
2013-04-27 22:46:00,51.0,49.0,30.40,NNE,14,1.0,4.0,93,0.00,,---,0.58,VWS V14.01,2013-04-28 03:46:00,
2013-04-27 22:47:00,51.0,49.0,30.40,NNE,13,4.0,5.0,93,0.00,,---,0.58,VWS V14.01,2013-04-28 03:47:00,
2013-04-27 22:48:00,51.0,49.0,30.40,NNE,13,3.0,5.0,93,0.00,,---,0.58,VWS V14.01,2013-04-28 03:48:00,
2013-04-27 22:49:00,51.0,49.0,30.40,NNE,13,2.0,5.0,93,0.00,,---,0.58,VWS V14.01,2013-04-28 03:49:00,
2013-04-27 22:50:00,51.0,49.0,30.40,NNE,13,1.0,5.0,93,0.00,,---,0.58,VWS V14.01,2013-04-28 03:50:00,
2013-04-27 22:51:00,51.0,49.0,30.40,NNE,13,0.0,2.0,93,0.00,,---,0.58,VWS V14.01,2013-04-28 03:51:00,
2013-04-27 22:52:00,51.0,49.0,30.40,NNE,13,2.0,2.0,93,0.00,,---,0.58,VWS V14.01,2013-04-28 03:52:00,
2013-04-27 22:53:00,51.0,49.0,30.40,NNE,13,2.0,2.0,93,0.00,,---,0.58,VWS V14.01,2013-04-28 03:53:00,
2013-04-27 22:54:00,51.0,49.0,30.40,NNE,13,2.0,3.0,93,0.00,,---,0.58,VWS V14.01,2013-04-28 03:54:00,
2013-04-27 22:55:00,51.0,49.0,30.40,NNE,13,2.0,3.0,93,0.00,,---,0.58,VWS V14.01,2013-04-28 03:55:00,
2013-04-27 22:56:00,51.0,49.0,30.40,NNE,13,0.0,3.0,93,0.00,,---,0.58,VWS V14.01,2013-04-28 03:56:00,
2013-04-27 22:57:00,51.0,49.0,30.40,NNE,13,0.0,3.0,93,0.00,,---,0.58,VWS V14.01,2013-04-28 03:57:00,
2013-04-27 22:58:00,51.0,49.0,30.40,NNE,13,0.0,3.0,93,0.00,,---,0.58,VWS V14.01,2013-04-28 03:58:00,
2013-04-27 22:59:00,51.0,49.0,30.40,NNW,340,5.0,5.0,93,0.00,,---,0.58,VWS V14.01,2013-04-28 03:59:00,
2013-04-27 23:00:00,51.0,49.0,30.40,NNW,340,5.0,5.0,93,0.00,,---,0.58,VWS V14.01,2013-04-28 04:00:00,
2013-04-27 23:01:00,51.0,49.0,30.40,North,350,2.0,5.0,93,0.00,,---,0.58,VWS V14.01,2013-04-28 04:01:00,
2013-04-27 23:02:00,51.0,49.0,30.40,North,350,2.0,5.0,93,0.00,,---,0.58,VWS V14.01,2013-04-28 04:02:00,
2013-04-27 23:03:00,51.0,49.0,30.40,North,350,2.0,5.0,93,0.00,,---,0.58,VWS V14.01,2013-04-28 04:03:00,
2013-04-27 23:04:00,51.0,49.0,30.40,North,350,2.0,5.0,93,0.00,,---,0.58,VWS V14.01,2013-04-28 04:04:00,
2013-04-27 23:05:00,51.0,49.0,30.40,North,350,1.0,5.0,93,0.00,,---,0.58,VWS V14.01,2013-04-28 04:05:00,
2013-04-27 23:06:00,51.0,49.0,30.40,North,350,3.0,5.0,93,0.00,,---,0.58,VWS V14.01,2013-04-28 04:06:00,
2013-04-27 23:07:00,51.0,49.0,30.40,North,350,2.0,5.0,93,0.00,,---,0.58,VWS V14.01,2013-04-28 04:07:00,
2013-04-27 23:08:00,51.0,49.0,30.40,North,350,1.0,5.0,93,0.00,,---,0.58,VWS V14.01,2013-04-28 04:08:00,
2013-04-27 23:09:00,51.0,49.0,30.40,North,350,1.0,5.0,93,0.00,,---,0.58,VWS V14.01,2013-04-28 04:09:00,
2013-04-27 23:10:00,51.0,49.0,30.40,North,350,1.0,5.0,93,0.00,,---,0.58,VWS V14.01,2013-04-28 04:10:00,
2013-04-27 23:11:00,51.0,49.0,30.40,North,350,2.0,3.0,93,0.00,,---,0.58,VWS V14.01,2013-04-28 04:11:00,
2013-04-27 23:12:00,51.0,49.0,30.40,North,349,3.0,5.0,93,0.00,,---,0.58,VWS V14.01,2013-04-28 04:12:00,
2013-04-27 23:13:00,51.0,49.0,30.40,North,349,3.0,5.0,93,0.00,,---,0.58,VWS V14.01,2013-04-28 04:13:00,
2013-04-27 23:14:00,51.0,49.0,30.40,North,355,3.0,5.0,93,0.00,,---,0.58,VWS V14.01,2013-04-28 04:14:00,
2013-04-27 23:15:00,51.0,49.0,30.40,North,355,3.0,5.0,93,0.00,,---,0.58,VWS V14.01,2013-04-28 04:15:00,
2013-04-27 23:16:00,51.0,49.0,30.40,North,355,4.0,5.0,93,0.00,,---,0.58,VWS V14.01,2013-04-28 04:16:00,
2013-04-27 23:17:00,51.0,49.0,30.40,North,355,3.0,5.0,93,0.00,,---,0.58,VWS V14.01,2013-04-28 04:17:00,
2013-04-27 23:18:00,51.0,49.0,30.40,North,355,3.0,5.0,93,0.00,,---,0.58,VWS V14.01,2013-04-28 04:18:00,
2013-04-27 23:19:00,51.0,49.0,30.40,North,351,2.0,5.0,93,0.00,,---,0.58,VWS V14.01,2013-04-28 04:19:00,
2013-04-27 23:20:00,51.0,49.0,30.40,NNW,348,3.0,5.0,93,0.00,,---,0.58,VWS V14.01,2013-04-28 04:20:00,
2013-04-27 23:21:00,51.0,49.0,30.40,NNW,348,0.0,3.0,93,0.00,,---,0.58,VWS V14.01,2013-04-28 04:21:00,
2013-04-27 23:22:00,51.0,49.0,30.40,NNW,348,1.0,4.0,93,0.00,,---,0.58,VWS V14.01,2013-04-28 04:22:00,
2013-04-27 23:23:00,51.0,49.0,30.40,North,350,2.0,4.0,93,0.00,,---,0.58,VWS V14.01,2013-04-28 04:23:00,
2013-04-27 23:24:00,50.8,48.8,30.40,North,350,2.0,4.0,93,0.00,,---,0.58,VWS V14.01,2013-04-28 04:24:00,
2013-04-27 23:25:00,50.8,48.8,30.40,North,350,3.0,4.0,93,0.00,,---,0.58,VWS V14.01,2013-04-28 04:25:00,
2013-04-27 23:26:00,50.8,48.8,30.40,North,350,1.0,4.0,93,0.00,,---,0.58,VWS V14.01,2013-04-28 04:26:00,
2013-04-27 23:27:00,50.8,48.8,30.40,North,350,3.0,4.0,93,0.00,,---,0.58,VWS V14.01,2013-04-28 04:27:00,
2013-04-27 23:28:00,50.8,48.8,30.40,North,350,1.0,4.0,93,0.00,,---,0.58,VWS V14.01,2013-04-28 04:28:00,
2013-04-27 23:29:00,50.8,48.8,30.40,North,350,2.0,4.0,93,0.00,,---,0.58,VWS V14.01,2013-04-28 04:29:00,
2013-04-27 23:30:00,50.8,48.8,30.40,North,350,3.0,4.0,93,0.00,,---,0.58,VWS V14.01,2013-04-28 04:30:00,
2013-04-27 23:31:00,50.8,48.8,30.40,North,350,0.0,4.0,93,0.00,,---,0.58,VWS V14.01,2013-04-28 04:31:00,
2013-04-27 23:32:00,50.8,48.8,30.40,North,350,2.0,4.0,93,0.00,,---,0.58,VWS V14.01,2013-04-28 04:32:00,
2013-04-27 23:33:00,50.8,48.8,30.40,North,350,2.0,4.0,93,0.00,,---,0.58,VWS V14.01,2013-04-28 04:33:00,
2013-04-27 23:34:00,50.8,48.8,30.40,North,350,0.0,4.0,93,0.00,,---,0.58,VWS V14.01,2013-04-28 04:34:00,
2013-04-27 23:35:00,50.8,48.8,30.40,North,350,0.0,4.0,93,0.00,,---,0.58,VWS V14.01,2013-04-28 04:35:00,
2013-04-27 23:36:00,50.8,48.8,30.40,North,350,1.0,4.0,93,0.00,,---,0.58,VWS V14.01,2013-04-28 04:36:00,
2013-04-27 23:37:00,50.8,48.8,30.40,North,350,0.0,4.0,93,0.00,,---,0.58,VWS V14.01,2013-04-28 04:37:00,
2013-04-27 23:38:00,50.8,48.8,30.40,North,350,0.0,4.0,93,0.00,,---,0.58,VWS V14.01,2013-04-28 04:38:00,
2013-04-27 23:39:00,50.8,48.8,30.40,North,350,0.0,4.0,93,0.00,,---,0.58,VWS V14.01,2013-04-28 04:39:00,
2013-04-27 23:40:00,50.8,48.8,30.40,North,350,0.0,4.0,93,0.00,,---,0.58,VWS V14.01,2013-04-28 04:40:00,
2013-04-27 23:41:00,50.8,48.8,30.40,North,350,0.0,0.0,93,0.00,,---,0.58,VWS V14.01,2013-04-28 04:41:00,
2013-04-27 23:42:00,50.8,48.8,30.40,North,350,2.0,3.0,93,0.00,,---,0.58,VWS V14.01,2013-04-28 04:42:00,
2013-04-27 23:43:00,50.8,48.8,30.40,North,350,2.0,3.0,93,0.00,,---,0.58,VWS V14.01,2013-04-28 04:43:00,
2013-04-27 23:44:00,50.8,48.8,30.40,North,350,2.0,3.0,93,0.00,,---,0.58,VWS V14.01,2013-04-28 04:44:00,
2013-04-27 23:45:00,50.8,48.8,30.41,North,350,2.0,3.0,93,0.00,,---,0.58,VWS V14.01,2013-04-28 04:45:00,
2013-04-27 23:46:00,50.8,48.8,30.41,North,350,2.0,3.0,93,0.00,,---,0.58,VWS V14.01,2013-04-28 04:46:00,
2013-04-27 23:47:00,50.8,48.8,30.41,North,350,0.0,3.0,93,0.00,,---,0.58,VWS V14.01,2013-04-28 04:47:00,
2013-04-27 23:48:00,50.8,48.8,30.41,North,350,0.0,3.0,93,0.00,,---,0.58,VWS V14.01,2013-04-28 04:48:00,
2013-04-27 23:49:00,50.8,48.8,30.41,North,350,2.0,3.0,93,0.00,,---,0.58,VWS V14.01,2013-04-28 04:49:00,
2013-04-27 23:50:00,50.8,48.8,30.41,North,350,1.0,3.0,93,0.00,,---,0.58,VWS V14.01,2013-04-28 04:50:00,
2013-04-27 23:51:00,50.8,48.8,30.41,North,350,0.0,2.0,93,0.00,,---,0.58,VWS V14.01,2013-04-28 04:51:00,
2013-04-27 23:52:00,50.8,48.8,30.41,North,350,0.0,2.0,93,0.00,,---,0.58,VWS V14.01,2013-04-28 04:52:00,
2013-04-27 23:53:00,50.8,48.8,30.41,North,350,0.0,2.0,93,0.00,,---,0.58,VWS V14.01,2013-04-28 04:53:00,
2013-04-27 23:54:00,50.8,48.8,30.41,North,350,0.0,2.0,93,0.00,,---,0.58,VWS V14.01,2013-04-28 04:54:00,
2013-04-27 23:55:00,50.8,48.8,30.41,North,350,0.0,2.0,93,0.00,,---,0.58,VWS V14.01,2013-04-28 04:55:00,
2013-04-27 23:56:00,50.8,48.8,30.41,North,350,0.0,2.0,93,0.00,,---,0.58,VWS V14.01,2013-04-28 04:56:00,
2013-04-27 23:57:00,50.8,48.8,30.41,North,350,0.0,2.0,93,0.00,,---,0.58,VWS V14.01,2013-04-28 04:57:00,
2013-04-27 23:58:00,50.8,48.8,30.41,North,350,2.0,2.0,93,0.00,,---,0.58,VWS V14.01,2013-04-28 04:58:00,
2013-04-27 23:59:00,50.8,48.8,30.41,North,350,2.0,3.0,93,0.00,,---,0.58,VWS V14.01,2013-04-28 04:59:00,